Station Historical Data
Daily Summary for March 8, 2011 Units:  Both    English   Metric
« Previous Day
Next Day »
Daily Weekly Monthly Yearly Custom
  High: Low: Average:
Temperature: 53.0 °F /  11.7 °C 43.0 °F /  6.1 °C 47.4 °F /  8.6 °C
Dew Point: 48.2 °F /  9 °C 36.6 °F /  2.6 °C 41.3 °F /  5.2 °C
Humidity: 95% 61% 80%
Wind Speed: 31.0mph /  49.9km/h - 11.5mph /  18.5km/h
Wind Gust: 35.0mph /  56.3km/h - -
Wind- - ESE
Pressure: 30.18 in /  1021.9 hPa 29.95 in /  1014.1 hPa -
Precipitation: 0.48 in /  12.19 mm    
Historical Graphs
 
 
Tabular Data for March 8, 2011
Time Temperature Dew Point Pressure Wind Wind Speed Wind Gust Humidity Rainfall Rate (Hourly) Conditions
00:00 43.3 °F /  6.3 °C 36.6 °F /  2.6 °C 30.11in /  1019.5hPa ESE 7.0mph /  11.3km/h 8.0mph /  12.9km/h 77% 0.00in /  0mm
00:01 43.4 °F /  6.3 °C 36.7 °F /  2.6 °C 30.11in /  1019.5hPa ESE 6.0mph /  9.7km/h 7.0mph /  11.3km/h 77% 0.00in /  0mm
00:05 43.5 °F /  6.4 °C 36.8 °F /  2.7 °C 30.11in /  1019.5hPa East 6.0mph /  9.7km/h 9.0mph /  14.5km/h 77% 0.00in /  0mm
00:06 43.5 °F /  6.4 °C 36.8 °F /  2.7 °C 30.11in /  1019.5hPa ESE 6.0mph /  9.7km/h 9.0mph /  14.5km/h 77% 0.00in /  0mm
00:07 43.5 °F /  6.4 °C 36.8 °F /  2.7 °C 30.11in /  1019.5hPa ESE 7.0mph /  11.3km/h 8.0mph /  12.9km/h 77% 0.00in /  0mm
00:11 43.6 °F /  6.4 °C 36.9 °F /  2.7 °C 30.10in /  1019.2hPa ESE 7.0mph /  11.3km/h 8.0mph /  12.9km/h 77% 0.00in /  0mm
00:12 43.6 °F /  6.4 °C 36.9 °F /  2.7 °C 30.11in /  1019.5hPa ESE 7.0mph /  11.3km/h 8.0mph /  12.9km/h 77% 0.00in /  0mm
00:17 43.6 °F /  6.4 °C 36.9 °F /  2.7 °C 30.11in /  1019.5hPa ESE 9.0mph /  14.5km/h 9.0mph /  14.5km/h 77% 0.00in /  0mm
00:22 43.7 °F /  6.5 °C 37.0 °F /  2.8 °C 30.11in /  1019.5hPa ESE 6.0mph /  9.7km/h 8.0mph /  12.9km/h 77% 0.00in /  0mm
00:27 43.7 °F /  6.5 °C 37.0 °F /  2.8 °C 30.11in /  1019.5hPa SE 6.0mph /  9.7km/h 8.0mph /  12.9km/h 77% 0.00in /  0mm
00:28 43.7 °F /  6.5 °C 37.0 °F /  2.8 °C 30.11in /  1019.5hPa ESE 7.0mph /  11.3km/h 8.0mph /  12.9km/h 77% 0.00in /  0mm
00:33 43.8 °F /  6.6 °C 37.1 °F /  2.8 °C 30.11in /  1019.5hPa ESE 8.0mph /  12.9km/h 8.0mph /  12.9km/h 77% 0.00in /  0mm
00:35 43.7 °F /  6.5 °C 37.0 °F /  2.8 °C 30.11in /  1019.5hPa ESE 7.0mph /  11.3km/h 8.0mph /  12.9km/h 77% 0.00in /  0mm
00:36 43.7 °F /  6.5 °C 37.0 °F /  2.8 °C 30.11in /  1019.5hPa SE 5.0mph /  8km/h 8.0mph /  12.9km/h 77% 0.00in /  0mm
00:39 43.7 °F /  6.5 °C 37.0 °F /  2.8 °C 30.11in /  1019.5hPa ESE 6.0mph /  9.7km/h 8.0mph /  12.9km/h 77% 0.00in /  0mm
00:41 43.7 °F /  6.5 °C 37.0 °F /  2.8 °C 30.11in /  1019.5hPa ESE 5.0mph /  8km/h 6.0mph /  9.7km/h 77% 0.00in /  0mm
00:44 43.6 °F /  6.4 °C 36.9 °F /  2.7 °C 30.11in /  1019.5hPa ESE 6.0mph /  9.7km/h 7.0mph /  11.3km/h 77% 0.00in /  0mm
00:49 43.6 °F /  6.4 °C 37.2 °F /  2.9 °C 30.11in /  1019.5hPa ESE 5.0mph /  8km/h 7.0mph /  11.3km/h 78% 0.00in /  0mm
00:50 43.6 °F /  6.4 °C 37.2 °F /  2.9 °C 30.11in /  1019.5hPa SE 5.0mph /  8km/h 7.0mph /  11.3km/h 78% 0.00in /  0mm
00:54 43.6 °F /  6.4 °C 37.2 °F /  2.9 °C 30.12in /  1019.9hPa ESE 4.0mph /  6.4km/h 7.0mph /  11.3km/h 78% 0.00in /  0mm
00:55 43.6 °F /  6.4 °C 37.2 °F /  2.9 °C 30.12in /  1019.9hPa ESE 5.0mph /  8km/h 7.0mph /  11.3km/h 78% 0.00in /  0mm
00:57 43.6 °F /  6.4 °C 37.2 °F /  2.9 °C 30.12in /  1019.9hPa ESE 3.0mph /  4.8km/h 7.0mph /  11.3km/h 78% 0.00in /  0mm
01:00 43.7 °F /  6.5 °C 37.3 °F /  2.9 °C 30.12in /  1019.9hPa SE 5.0mph /  8km/h 7.0mph /  11.3km/h 78% 0.00in /  0mm
01:01 43.7 °F /  6.5 °C 37.3 °F /  2.9 °C 30.12in /  1019.9hPa SE 6.0mph /  9.7km/h 8.0mph /  12.9km/h 78% 0.00in /  0mm
01:05 43.7 °F /  6.5 °C 37.3 °F /  2.9 °C 30.12in /  1019.9hPa ESE 4.0mph /  6.4km/h 8.0mph /  12.9km/h 78% 0.00in /  0mm
01:06 43.7 °F /  6.5 °C 37.3 °F /  2.9 °C 30.12in /  1019.9hPa SE 5.0mph /  8km/h 6.0mph /  9.7km/h 78% 0.00in /  0mm
01:11 43.8 °F /  6.6 °C 37.4 °F /  3 °C 30.12in /  1019.9hPa ESE 5.0mph /  8km/h 6.0mph /  9.7km/h 78% 0.00in /  0mm
01:16 43.8 °F /  6.6 °C 37.4 °F /  3 °C 30.11in /  1019.5hPa ESE 4.0mph /  6.4km/h 8.0mph /  12.9km/h 78% 0.00in /  0mm
01:21 43.7 °F /  6.5 °C 37.3 °F /  2.9 °C 30.12in /  1019.9hPa SE 7.0mph /  11.3km/h 9.0mph /  14.5km/h 78% 0.00in /  0mm
01:22 43.7 °F /  6.5 °C 37.3 °F /  2.9 °C 30.12in /  1019.9hPa SE 7.0mph /  11.3km/h 9.0mph /  14.5km/h 78% 0.00in /  0mm
01:27 43.8 °F /  6.6 °C 37.4 °F /  3 °C 30.12in /  1019.9hPa ESE 6.0mph /  9.7km/h 9.0mph /  14.5km/h 78% 0.00in /  0mm
01:28 43.8 °F /  6.6 °C 37.4 °F /  3 °C 30.12in /  1019.9hPa ESE 4.0mph /  6.4km/h 9.0mph /  14.5km/h 78% 0.00in /  0mm
01:32 43.8 °F /  6.6 °C 37.4 °F /  3 °C 30.12in /  1019.9hPa East 5.0mph /  8km/h 7.0mph /  11.3km/h 78% 0.00in /  0mm
01:33 43.8 °F /  6.6 °C 37.4 °F /  3 °C 30.12in /  1019.9hPa ESE 6.0mph /  9.7km/h 7.0mph /  11.3km/h 78% 0.00in /  0mm
01:34 43.8 °F /  6.6 °C 37.4 °F /  3 °C 30.13in /  1020.2hPa SE 6.0mph /  9.7km/h 7.0mph /  11.3km/h 78% 0.00in /  0mm
01:37 43.9 °F /  6.6 °C 37.5 °F /  3.1 °C 30.13in /  1020.2hPa SE 6.0mph /  9.7km/h 7.0mph /  11.3km/h 78% 0.00in /  0mm
01:38 43.9 °F /  6.6 °C 37.5 °F /  3.1 °C 30.13in /  1020.2hPa ESE 6.0mph /  9.7km/h 7.0mph /  11.3km/h 78% 0.00in /  0mm
01:43 43.9 °F /  6.6 °C 37.2 °F /  2.9 °C 30.13in /  1020.2hPa SE 6.0mph /  9.7km/h 9.0mph /  14.5km/h 77% 0.00in /  0mm
01:48 44.0 °F /  6.7 °C 37.3 °F /  2.9 °C 30.13in /  1020.2hPa SE 5.0mph /  8km/h 8.0mph /  12.9km/h 77% 0.00in /  0mm
01:49 44.0 °F /  6.7 °C 37.6 °F /  3.1 °C 30.13in /  1020.2hPa SE 4.0mph /  6.4km/h 8.0mph /  12.9km/h 78% 0.00in /  0mm
01:53 44.0 °F /  6.7 °C 37.3 °F /  2.9 °C 30.13in /  1020.2hPa ESE 4.0mph /  6.4km/h 6.0mph /  9.7km/h 77% 0.00in /  0mm
01:54 44.0 °F /  6.7 °C 37.3 °F /  2.9 °C 30.13in /  1020.2hPa ESE 5.0mph /  8km/h 6.0mph /  9.7km/h 77% 0.00in /  0mm
01:58 43.9 °F /  6.6 °C 37.5 °F /  3.1 °C 30.14in /  1020.5hPa SE 3.0mph /  4.8km/h 6.0mph /  9.7km/h 78% 0.00in /  0mm
01:59 43.9 °F /  6.6 °C 37.5 °F /  3.1 °C 30.14in /  1020.5hPa ESE 6.0mph /  9.7km/h 6.0mph /  9.7km/h 78% 0.00in /  0mm
02:04 43.9 °F /  6.6 °C 37.5 °F /  3.1 °C 30.14in /  1020.5hPa SE 3.0mph /  4.8km/h 5.0mph /  8km/h 78% 0.00in /  0mm
02:09 43.9 °F /  6.6 °C 37.5 °F /  3.1 °C 30.14in /  1020.5hPa SE 5.0mph /  8km/h 7.0mph /  11.3km/h 78% 0.00in /  0mm
02:14 44.0 °F /  6.7 °C 37.6 °F /  3.1 °C 30.15in /  1020.9hPa SE 4.0mph /  6.4km/h 6.0mph /  9.7km/h 78% 0.00in /  0mm
02:15 44.0 °F /  6.7 °C 37.6 °F /  3.1 °C 30.15in /  1020.9hPa SE 6.0mph /  9.7km/h 6.0mph /  9.7km/h 78% 0.00in /  0mm
02:20 44.0 °F /  6.7 °C 37.6 °F /  3.1 °C 30.15in /  1020.9hPa ESE 6.0mph /  9.7km/h 7.0mph /  11.3km/h 78% 0.00in /  0mm
02:25 44.1 °F /  6.7 °C 37.7 °F /  3.2 °C 30.15in /  1020.9hPa ESE 5.0mph /  8km/h 7.0mph /  11.3km/h 78% 0.00in /  0mm
02:30 44.0 °F /  6.7 °C 37.6 °F /  3.1 °C 30.15in /  1020.9hPa ESE 4.0mph /  6.4km/h 7.0mph /  11.3km/h 78% 0.00in /  0mm
02:33 44.0 °F /  6.7 °C 37.6 °F /  3.1 °C 30.15in /  1020.9hPa ESE 4.0mph /  6.4km/h 7.0mph /  11.3km/h 78% 0.00in /  0mm
02:35 44.0 °F /  6.7 °C 37.6 °F /  3.1 °C 30.15in /  1020.9hPa SE 5.0mph /  8km/h 5.0mph /  8km/h 78% 0.00in /  0mm
02:36 44.1 °F /  6.7 °C 37.7 °F /  3.2 °C 30.15in /  1020.9hPa SE 4.0mph /  6.4km/h 6.0mph /  9.7km/h 78% 0.00in /  0mm
02:38 44.1 °F /  6.7 °C 37.7 °F /  3.2 °C 30.15in /  1020.9hPa SE 3.0mph /  4.8km/h 6.0mph /  9.7km/h 78% 0.00in /  0mm
02:43 44.1 °F /  6.7 °C 37.7 °F /  3.2 °C 30.16in /  1021.2hPa SE 3.0mph /  4.8km/h 6.0mph /  9.7km/h 78% 0.00in /  0mm
02:44 44.1 °F /  6.7 °C 37.7 °F /  3.2 °C 30.16in /  1021.2hPa SE 3.0mph /  4.8km/h 6.0mph /  9.7km/h 78% 0.00in /  0mm
02:49 44.0 °F /  6.7 °C 37.6 °F /  3.1 °C 30.15in /  1020.9hPa ESE 4.0mph /  6.4km/h 6.0mph /  9.7km/h 78% 0.00in /  0mm
02:54 44.0 °F /  6.7 °C 37.6 °F /  3.1 °C 30.14in /  1020.5hPa ESE 8.0mph /  12.9km/h 8.0mph /  12.9km/h 78% 0.00in /  0mm
02:56 44.0 °F /  6.7 °C 37.6 °F /  3.1 °C 30.15in /  1020.9hPa ESE 4.0mph /  6.4km/h 8.0mph /  12.9km/h 78% 0.00in /  0mm
02:59 43.9 °F /  6.6 °C 37.8 °F /  3.2 °C 30.15in /  1020.9hPa ESE 5.0mph /  8km/h 8.0mph /  12.9km/h 79% 0.00in /  0mm
03:00 43.9 °F /  6.6 °C 37.8 °F /  3.2 °C 30.15in /  1020.9hPa ESE 5.0mph /  8km/h 8.0mph /  12.9km/h 79% 0.00in /  0mm
03:04 43.9 °F /  6.6 °C 37.8 °F /  3.2 °C 30.14in /  1020.5hPa ESE 8.0mph /  12.9km/h 10.0mph /  16.1km/h 79% 0.00in /  0mm
03:05 43.9 °F /  6.6 °C 37.8 °F /  3.2 °C 30.14in /  1020.5hPa ESE 8.0mph /  12.9km/h 10.0mph /  16.1km/h 79% 0.00in /  0mm
03:10 43.8 °F /  6.6 °C 37.7 °F /  3.2 °C 30.15in /  1020.9hPa ESE 4.0mph /  6.4km/h 7.0mph /  11.3km/h 79% 0.00in /  0mm
03:11 43.9 °F /  6.6 °C 37.8 °F /  3.2 °C 30.15in /  1020.9hPa ESE 5.0mph /  8km/h 7.0mph /  11.3km/h 79% 0.00in /  0mm
03:15 43.9 °F /  6.6 °C 37.8 °F /  3.2 °C 30.14in /  1020.5hPa ESE 6.0mph /  9.7km/h 9.0mph /  14.5km/h 79% 0.00in /  0mm
03:16 43.9 °F /  6.6 °C 37.8 °F /  3.2 °C 30.14in /  1020.5hPa ESE 6.0mph /  9.7km/h 9.0mph /  14.5km/h 79% 0.00in /  0mm
03:21 43.9 °F /  6.6 °C 37.8 °F /  3.2 °C 30.15in /  1020.9hPa SE 4.0mph /  6.4km/h 8.0mph /  12.9km/h 79% 0.00in /  0mm
03:22 43.9 °F /  6.6 °C 37.8 °F /  3.2 °C 30.15in /  1020.9hPa ESE 5.0mph /  8km/h 8.0mph /  12.9km/h 79% 0.00in /  0mm
03:27 43.9 °F /  6.6 °C 37.8 °F /  3.2 °C 30.15in /  1020.9hPa ESE 3.0mph /  4.8km/h 6.0mph /  9.7km/h 79% 0.00in /  0mm
03:28 43.9 °F /  6.6 °C 37.8 °F /  3.2 °C 30.15in /  1020.9hPa ESE 4.0mph /  6.4km/h 6.0mph /  9.7km/h 79% 0.00in /  0mm
03:32 43.8 °F /  6.6 °C 37.7 °F /  3.2 °C 30.15in /  1020.9hPa ESE 3.0mph /  4.8km/h 4.0mph /  6.4km/h 79% 0.00in /  0mm
03:33 43.9 °F /  6.6 °C 37.8 °F /  3.2 °C 30.15in /  1020.9hPa SE 4.0mph /  6.4km/h 4.0mph /  6.4km/h 79% 0.00in /  0mm
03:37 43.8 °F /  6.6 °C 37.7 °F /  3.2 °C 30.16in /  1021.2hPa ESE 2.0mph /  3.2km/h 5.0mph /  8km/h 79% 0.00in /  0mm
03:38 43.8 °F /  6.6 °C 37.7 °F /  3.2 °C 30.16in /  1021.2hPa ESE 2.0mph /  3.2km/h 4.0mph /  6.4km/h 79% 0.00in /  0mm
03:42 43.7 °F /  6.5 °C 38.0 °F /  3.3 °C 30.16in /  1021.2hPa SE 2.0mph /  3.2km/h 4.0mph /  6.4km/h 80% 0.00in /  0mm
03:47 43.7 °F /  6.5 °C 37.6 °F /  3.1 °C 30.16in /  1021.2hPa ESE 2.0mph /  3.2km/h 3.0mph /  4.8km/h 79% 0.00in /  0mm
03:52 43.7 °F /  6.5 °C 37.6 °F /  3.1 °C 30.15in /  1020.9hPa ESE 2.0mph /  3.2km/h 4.0mph /  6.4km/h 79% 0.00in /  0mm
03:53 43.7 °F /  6.5 °C 38.0 °F /  3.3 °C 30.15in /  1020.9hPa ESE 3.0mph /  4.8km/h 4.0mph /  6.4km/h 80% 0.00in /  0mm
03:54 43.7 °F /  6.5 °C 38.0 °F /  3.3 °C 30.15in /  1020.9hPa ESE 2.0mph /  3.2km/h 4.0mph /  6.4km/h 80% 0.00in /  0mm
03:58 43.5 °F /  6.4 °C 37.8 °F /  3.2 °C 30.15in /  1020.9hPa SE 3.0mph /  4.8km/h 4.0mph /  6.4km/h 80% 0.00in /  0mm
03:59 43.5 °F /  6.4 °C 37.8 °F /  3.2 °C 30.15in /  1020.9hPa ESE 2.0mph /  3.2km/h 4.0mph /  6.4km/h 80% 0.00in /  0mm
04:02 43.5 °F /  6.4 °C 37.8 °F /  3.2 °C 30.15in /  1020.9hPa ESE 3.0mph /  4.8km/h 5.0mph /  8km/h 80% 0.00in /  0mm
04:03 43.5 °F /  6.4 °C 37.8 °F /  3.2 °C 30.15in /  1020.9hPa ESE 4.0mph /  6.4km/h 5.0mph /  8km/h 80% 0.00in /  0mm
04:04 43.5 °F /  6.4 °C 37.8 °F /  3.2 °C 30.15in /  1020.9hPa SE 3.0mph /  4.8km/h 5.0mph /  8km/h 80% 0.00in /  0mm
04:05 43.5 °F /  6.4 °C 37.8 °F /  3.2 °C 30.15in /  1020.9hPa ESE 3.0mph /  4.8km/h 5.0mph /  8km/h 80% 0.00in /  0mm
04:09 43.5 °F /  6.4 °C 37.8 °F /  3.2 °C 30.15in /  1020.9hPa ESE 4.0mph /  6.4km/h 5.0mph /  8km/h 80% 0.00in /  0mm
04:10 43.5 °F /  6.4 °C 37.8 °F /  3.2 °C 30.15in /  1020.9hPa ESE 3.0mph /  4.8km/h 5.0mph /  8km/h 80% 0.00in /  0mm
04:15 43.5 °F /  6.4 °C 37.8 °F /  3.2 °C 30.15in /  1020.9hPa East 4.0mph /  6.4km/h 4.0mph /  6.4km/h 80% 0.00in /  0mm
04:20 43.5 °F /  6.4 °C 37.8 °F /  3.2 °C 30.15in /  1020.9hPa ESE 3.0mph /  4.8km/h 4.0mph /  6.4km/h 80% 0.00in /  0mm
04:21 43.5 °F /  6.4 °C 37.8 °F /  3.2 °C 30.15in /  1020.9hPa ESE 3.0mph /  4.8km/h 4.0mph /  6.4km/h 80% 0.00in /  0mm
04:26 43.4 °F /  6.3 °C 37.7 °F /  3.2 °C 30.16in /  1021.2hPa ESE 2.0mph /  3.2km/h 3.0mph /  4.8km/h 80% 0.00in /  0mm
04:27 43.4 °F /  6.3 °C 37.7 °F /  3.2 °C 30.16in /  1021.2hPa ESE 3.0mph /  4.8km/h 3.0mph /  4.8km/h 80% 0.00in /  0mm
04:30 43.4 °F /  6.3 °C 37.7 °F /  3.2 °C 30.16in /  1021.2hPa ESE 3.0mph /  4.8km/h 4.0mph /  6.4km/h 80% 0.00in /  0mm
04:31 43.4 °F /  6.3 °C 37.7 °F /  3.2 °C 30.16in /  1021.2hPa ESE 3.0mph /  4.8km/h 4.0mph /  6.4km/h 80% 0.00in /  0mm
04:32 43.4 °F /  6.3 °C 37.7 °F /  3.2 °C 30.16in /  1021.2hPa ESE 2.0mph /  3.2km/h 3.0mph /  4.8km/h 80% 0.00in /  0mm
04:33 43.4 °F /  6.3 °C 37.7 °F /  3.2 °C 30.17in /  1021.6hPa ESE 2.0mph /  3.2km/h 3.0mph /  4.8km/h 80% 0.00in /  0mm
04:36 43.4 °F /  6.3 °C 37.7 °F /  3.2 °C 30.17in /  1021.6hPa ESE 1.0mph /  1.6km/h 3.0mph /  4.8km/h 80% 0.00in /  0mm
04:37 43.4 °F /  6.3 °C 37.7 °F /  3.2 °C 30.17in /  1021.6hPa ESE 1.0mph /  1.6km/h 3.0mph /  4.8km/h 80% 0.00in /  0mm
04:39 43.4 °F /  6.3 °C 37.7 °F /  3.2 °C 30.17in /  1021.6hPa ESE 1.0mph /  1.6km/h 2.0mph /  3.2km/h 80% 0.00in /  0mm
04:41 43.4 °F /  6.3 °C 37.7 °F /  3.2 °C 30.17in /  1021.6hPa ESE 2.0mph /  3.2km/h 2.0mph /  3.2km/h 80% 0.00in /  0mm
04:43 43.4 °F /  6.3 °C 37.7 °F /  3.2 °C 30.17in /  1021.6hPa ESE 3.0mph /  4.8km/h 3.0mph /  4.8km/h 80% 0.00in /  0mm
04:48 43.5 °F /  6.4 °C 37.8 °F /  3.2 °C 30.17in /  1021.6hPa ESE 5.0mph /  8km/h 5.0mph /  8km/h 80% 0.00in /  0mm
04:49 43.5 °F /  6.4 °C 37.8 °F /  3.2 °C 30.17in /  1021.6hPa ESE 4.0mph /  6.4km/h 5.0mph /  8km/h 80% 0.00in /  0mm
04:54 43.2 °F /  6.2 °C 37.8 °F /  3.2 °C 30.16in /  1021.2hPa SE 4.0mph /  6.4km/h 5.0mph /  8km/h 81% 0.00in /  0mm
04:59 43.1 °F /  6.2 °C 37.7 °F /  3.2 °C 30.16in /  1021.2hPa ESE 4.0mph /  6.4km/h 6.0mph /  9.7km/h 81% 0.00in /  0mm
05:04 43.1 °F /  6.2 °C 37.7 °F /  3.2 °C 30.15in /  1020.9hPa ESE 5.0mph /  8km/h 7.0mph /  11.3km/h 81% 0.00in /  0mm
05:09 43.0 °F /  6.1 °C 37.6 °F /  3.1 °C 30.16in /  1021.2hPa ESE 4.0mph /  6.4km/h 5.0mph /  8km/h 81% 0.00in /  0mm
05:10 43.0 °F /  6.1 °C 37.6 °F /  3.1 °C 30.16in /  1021.2hPa ESE 6.0mph /  9.7km/h 8.0mph /  12.9km/h 81% 0.00in /  0mm
05:14 43.3 °F /  6.3 °C 37.6 °F /  3.1 °C 30.15in /  1020.9hPa ESE 6.0mph /  9.7km/h 9.0mph /  14.5km/h 80% 0.00in /  0mm
05:16 43.3 °F /  6.3 °C 37.6 °F /  3.1 °C 30.15in /  1020.9hPa ESE 6.0mph /  9.7km/h 7.0mph /  11.3km/h 80% 0.00in /  0mm
05:20 43.2 °F /  6.2 °C 37.5 °F /  3.1 °C 30.15in /  1020.9hPa East 4.0mph /  6.4km/h 7.0mph /  11.3km/h 80% 0.00in /  0mm
05:21 43.2 °F /  6.2 °C 37.5 °F /  3.1 °C 30.15in /  1020.9hPa ESE 4.0mph /  6.4km/h 6.0mph /  9.7km/h 80% 0.00in /  0mm
05:25 43.2 °F /  6.2 °C 37.5 °F /  3.1 °C 30.15in /  1020.9hPa SE 4.0mph /  6.4km/h 6.0mph /  9.7km/h 80% 0.00in /  0mm
05:26 43.1 °F /  6.2 °C 37.4 °F /  3 °C 30.15in /  1020.9hPa ESE 4.0mph /  6.4km/h 6.0mph /  9.7km/h 80% 0.00in /  0mm
05:27 43.1 °F /  6.2 °C 37.4 °F /  3 °C 30.15in /  1020.9hPa SE 5.0mph /  8km/h 6.0mph /  9.7km/h 80% 0.00in /  0mm
05:29 43.2 °F /  6.2 °C 37.5 °F /  3.1 °C 30.15in /  1020.9hPa ESE 4.0mph /  6.4km/h 6.0mph /  9.7km/h 80% 0.00in /  0mm
05:30 43.1 °F /  6.2 °C 37.4 °F /  3 °C 30.15in /  1020.9hPa ESE 5.0mph /  8km/h 6.0mph /  9.7km/h 80% 0.00in /  0mm
05:32 43.2 °F /  6.2 °C 37.5 °F /  3.1 °C 30.16in /  1021.2hPa ESE 4.0mph /  6.4km/h 8.0mph /  12.9km/h 80% 0.00in /  0mm
05:35 43.2 °F /  6.2 °C 37.5 °F /  3.1 °C 30.15in /  1020.9hPa ESE 6.0mph /  9.7km/h 7.0mph /  11.3km/h 80% 0.00in /  0mm
05:37 43.2 °F /  6.2 °C 37.5 °F /  3.1 °C 30.16in /  1021.2hPa ESE 6.0mph /  9.7km/h 7.0mph /  11.3km/h 80% 0.00in /  0mm
05:40 43.2 °F /  6.2 °C 37.8 °F /  3.2 °C 30.16in /  1021.2hPa ESE 5.0mph /  8km/h 7.0mph /  11.3km/h 81% 0.00in /  0mm
05:41 43.2 °F /  6.2 °C 37.8 °F /  3.2 °C 30.16in /  1021.2hPa ESE 5.0mph /  8km/h 7.0mph /  11.3km/h 81% 0.00in /  0mm
05:45 43.2 °F /  6.2 °C 37.8 °F /  3.2 °C 30.16in /  1021.2hPa ESE 7.0mph /  11.3km/h 8.0mph /  12.9km/h 81% 0.00in /  0mm
05:46 43.2 °F /  6.2 °C 37.8 °F /  3.2 °C 30.16in /  1021.2hPa ESE 5.0mph /  8km/h 8.0mph /  12.9km/h 81% 0.00in /  0mm
05:50 43.5 °F /  6.4 °C 37.8 °F /  3.2 °C 30.16in /  1021.2hPa ESE 6.0mph /  9.7km/h 8.0mph /  12.9km/h 80% 0.00in /  0mm
05:51 43.6 °F /  6.4 °C 37.8 °F /  3.2 °C 30.16in /  1021.2hPa East 7.0mph /  11.3km/h 8.0mph /  12.9km/h 80% 0.00in /  0mm
05:55 43.7 °F /  6.5 °C 38.0 °F /  3.3 °C 30.16in /  1021.2hPa ESE 5.0mph /  8km/h 7.0mph /  11.3km/h 80% 0.00in /  0mm
05:57 43.6 °F /  6.4 °C 37.8 °F /  3.2 °C 30.16in /  1021.2hPa ESE 6.0mph /  9.7km/h 7.0mph /  11.3km/h 80% 0.00in /  0mm
05:58 43.6 °F /  6.4 °C 37.8 °F /  3.2 °C 30.16in /  1021.2hPa ESE 5.0mph /  8km/h 7.0mph /  11.3km/h 80% 0.00in /  0mm
06:00 43.5 °F /  6.4 °C 37.8 °F /  3.2 °C 30.15in /  1020.9hPa ESE 6.0mph /  9.7km/h 7.0mph /  11.3km/h 80% 0.00in /  0mm
06:01 43.5 °F /  6.4 °C 37.8 °F /  3.2 °C 30.15in /  1020.9hPa ESE 8.0mph /  12.9km/h 8.0mph /  12.9km/h 80% 0.00in /  0mm
06:02 43.5 °F /  6.4 °C 37.8 °F /  3.2 °C 30.15in /  1020.9hPa ESE 7.0mph /  11.3km/h 8.0mph /  12.9km/h 80% 0.00in /  0mm
06:06 43.5 °F /  6.4 °C 37.8 °F /  3.2 °C 30.15in /  1020.9hPa ESE 7.0mph /  11.3km/h 9.0mph /  14.5km/h 80% 0.00in /  0mm
06:07 43.4 °F /  6.3 °C 37.7 °F /  3.2 °C 30.15in /  1020.9hPa ESE 7.0mph /  11.3km/h 9.0mph /  14.5km/h 80% 0.00in /  0mm
06:12 43.5 °F /  6.4 °C 37.8 °F /  3.2 °C 30.15in /  1020.9hPa SE 5.0mph /  8km/h 8.0mph /  12.9km/h 80% 0.00in /  0mm
06:13 43.5 °F /  6.4 °C 37.8 °F /  3.2 °C 30.15in /  1020.9hPa ESE 5.0mph /  8km/h 9.0mph /  14.5km/h 80% 0.00in /  0mm
06:18 43.7 °F /  6.5 °C 38.0 °F /  3.3 °C 30.15in /  1020.9hPa ESE 7.0mph /  11.3km/h 9.0mph /  14.5km/h 80% 0.00in /  0mm
06:23 43.8 °F /  6.6 °C 38.0 °F /  3.3 °C 30.15in /  1020.9hPa ESE 8.0mph /  12.9km/h 9.0mph /  14.5km/h 80% 0.00in /  0mm
06:28 44.0 °F /  6.7 °C 37.9 °F /  3.3 °C 30.16in /  1021.2hPa ESE 7.0mph /  11.3km/h 9.0mph /  14.5km/h 79% 0.00in /  0mm
06:29 44.1 °F /  6.7 °C 38.0 °F /  3.3 °C 30.16in /  1021.2hPa ESE 8.0mph /  12.9km/h 11.0mph /  17.7km/h 79% 0.00in /  0mm
06:33 44.2 °F /  6.8 °C 38.1 °F /  3.4 °C 30.16in /  1021.2hPa SE 7.0mph /  11.3km/h 11.0mph /  17.7km/h 79% 0.00in /  0mm
06:35 44.4 °F /  6.9 °C 38.0 °F /  3.3 °C 30.16in /  1021.2hPa East 7.0mph /  11.3km/h 12.0mph /  19.3km/h 78% 0.00in /  0mm
06:37 44.4 °F /  6.9 °C 38.0 °F /  3.3 °C 30.16in /  1021.2hPa ESE 8.0mph /  12.9km/h 12.0mph /  19.3km/h 78% 0.00in /  0mm
06:38 44.5 °F /  6.9 °C 38.1 °F /  3.4 °C 30.16in /  1021.2hPa ESE 9.0mph /  14.5km/h 10.0mph /  16.1km/h 78% 0.00in /  0mm
06:39 44.5 °F /  6.9 °C 38.1 °F /  3.4 °C 30.16in /  1021.2hPa ESE 13.0mph /  20.9km/h 13.0mph /  20.9km/h 78% 0.00in /  0mm
06:41 44.6 °F /  7 °C 38.2 °F /  3.4 °C 30.16in /  1021.2hPa ESE 7.0mph /  11.3km/h 13.0mph /  20.9km/h 78% 0.00in /  0mm
06:42 44.6 °F /  7 °C 38.2 °F /  3.4 °C 30.16in /  1021.2hPa SE 6.0mph /  9.7km/h 13.0mph /  20.9km/h 78% 0.00in /  0mm
06:46 44.5 °F /  6.9 °C 38.1 °F /  3.4 °C 30.16in /  1021.2hPa ESE 6.0mph /  9.7km/h 10.0mph /  16.1km/h 78% 0.00in /  0mm
06:47 44.5 °F /  6.9 °C 38.1 °F /  3.4 °C 30.16in /  1021.2hPa SE 6.0mph /  9.7km/h 10.0mph /  16.1km/h 78% 0.00in /  0mm
06:51 44.5 °F /  6.9 °C 38.1 °F /  3.4 °C 30.15in /  1020.9hPa ESE 12.0mph /  19.3km/h 12.0mph /  19.3km/h 78% 0.00in /  0mm
06:53 44.5 °F /  6.9 °C 38.1 °F /  3.4 °C 30.16in /  1021.2hPa ESE 8.0mph /  12.9km/h 12.0mph /  19.3km/h 78% 0.00in /  0mm
06:56 44.5 °F /  6.9 °C 38.1 °F /  3.4 °C 30.15in /  1020.9hPa ESE 6.0mph /  9.7km/h 10.0mph /  16.1km/h 78% 0.00in /  0mm
06:59 44.4 °F /  6.9 °C 38.0 °F /  3.3 °C 30.15in /  1020.9hPa ESE 7.0mph /  11.3km/h 10.0mph /  16.1km/h 78% 0.00in /  0mm
07:01 44.5 °F /  6.9 °C 38.1 °F /  3.4 °C 30.15in /  1020.9hPa SE 8.0mph /  12.9km/h 12.0mph /  19.3km/h 78% 0.00in /  0mm
07:02 44.5 °F /  6.9 °C 38.1 °F /  3.4 °C 30.15in /  1020.9hPa SE 7.0mph /  11.3km/h 12.0mph /  19.3km/h 78% 0.00in /  0mm
07:04 44.5 °F /  6.9 °C 37.8 °F /  3.2 °C 30.15in /  1020.9hPa ESE 10.0mph /  16.1km/h 11.0mph /  17.7km/h 77% 0.00in /  0mm
07:06 44.5 °F /  6.9 °C 37.8 °F /  3.2 °C 30.15in /  1020.9hPa ESE 5.0mph /  8km/h 13.0mph /  20.9km/h 77% 0.00in /  0mm
07:07 44.5 °F /  6.9 °C 38.1 °F /  3.4 °C 30.15in /  1020.9hPa SE 9.0mph /  14.5km/h 13.0mph /  20.9km/h 78% 0.00in /  0mm
07:12 44.3 °F /  6.8 °C 37.9 °F /  3.3 °C 30.15in /  1020.9hPa ESE 6.0mph /  9.7km/h 9.0mph /  14.5km/h 78% 0.00in /  0mm
07:13 44.3 °F /  6.8 °C 37.9 °F /  3.3 °C 30.15in /  1020.9hPa ESE 5.0mph /  8km/h 9.0mph /  14.5km/h 78% 0.00in /  0mm
07:17 44.3 °F /  6.8 °C 37.9 °F /  3.3 °C 30.16in /  1021.2hPa ESE 6.0mph /  9.7km/h 11.0mph /  17.7km/h 78% 0.00in /  0mm
07:18 44.3 °F /  6.8 °C 37.9 °F /  3.3 °C 30.16in /  1021.2hPa East 8.0mph /  12.9km/h 9.0mph /  14.5km/h 78% 0.00in /  0mm
07:23 44.3 °F /  6.8 °C 37.9 °F /  3.3 °C 30.15in /  1020.9hPa ESE 11.0mph /  17.7km/h 11.0mph /  17.7km/h 78% 0.00in /  0mm
07:28 44.5 °F /  6.9 °C 38.1 °F /  3.4 °C 30.16in /  1021.2hPa East 9.0mph /  14.5km/h 12.0mph /  19.3km/h 78% 0.00in /  0mm
07:29 44.5 °F /  6.9 °C 38.1 °F /  3.4 °C 30.15in /  1020.9hPa SE 10.0mph /  16.1km/h 12.0mph /  19.3km/h 78% 0.00in /  0mm
07:34 44.7 °F /  7.1 °C 37.9 °F /  3.3 °C 30.16in /  1021.2hPa ESE 9.0mph /  14.5km/h 13.0mph /  20.9km/h 77% 0.00in /  0mm
07:35 44.7 °F /  7.1 °C 38.3 °F /  3.5 °C 30.16in /  1021.2hPa ESE 9.0mph /  14.5km/h 11.0mph /  17.7km/h 78% 0.00in /  0mm
07:36 44.7 °F /  7.1 °C 37.9 °F /  3.3 °C 30.15in /  1020.9hPa SE 7.0mph /  11.3km/h 11.0mph /  17.7km/h 77% 0.00in /  0mm
07:39 44.8 °F /  7.1 °C 38.0 °F /  3.3 °C 30.16in /  1021.2hPa ESE 9.0mph /  14.5km/h 11.0mph /  17.7km/h 77% 0.00in /  0mm
07:42 44.8 °F /  7.1 °C 38.0 °F /  3.3 °C 30.16in /  1021.2hPa ESE 9.0mph /  14.5km/h 11.0mph /  17.7km/h 77% 0.00in /  0mm
07:44 44.9 °F /  7.2 °C 38.1 °F /  3.4 °C 30.16in /  1021.2hPa SE 7.0mph /  11.3km/h 11.0mph /  17.7km/h 77% 0.00in /  0mm
07:47 45.0 °F /  7.2 °C 38.2 °F /  3.4 °C 30.16in /  1021.2hPa ESE 9.0mph /  14.5km/h 13.0mph /  20.9km/h 77% 0.00in /  0mm
07:52 45.1 °F /  7.3 °C 38.0 °F /  3.3 °C 30.16in /  1021.2hPa ESE 8.0mph /  12.9km/h 14.0mph /  22.5km/h 76% 0.00in /  0mm
07:54 45.2 °F /  7.3 °C 38.1 °F /  3.4 °C 30.16in /  1021.2hPa SE 9.0mph /  14.5km/h 16.0mph /  25.7km/h 76% 0.00in /  0mm
07:56 45.3 °F /  7.4 °C 38.2 °F /  3.4 °C 30.16in /  1021.2hPa ESE 11.0mph /  17.7km/h 16.0mph /  25.7km/h 76% 0.00in /  0mm
07:57 45.3 °F /  7.4 °C 38.2 °F /  3.4 °C 30.16in /  1021.2hPa ESE 11.0mph /  17.7km/h 14.0mph /  22.5km/h 76% 0.00in /  0mm
07:58 45.3 °F /  7.4 °C 38.2 °F /  3.4 °C 30.15in /  1020.9hPa SE 10.0mph /  16.1km/h 14.0mph /  22.5km/h 76% 0.00in /  0mm
07:59 45.3 °F /  7.4 °C 38.2 °F /  3.4 °C 30.16in /  1021.2hPa ESE 12.0mph /  19.3km/h 14.0mph /  22.5km/h 76% 0.00in /  0mm
08:02 45.4 °F /  7.4 °C 38.0 °F /  3.3 °C 30.16in /  1021.2hPa East 8.0mph /  12.9km/h 14.0mph /  22.5km/h 75% 0.00in /  0mm
08:03 45.3 °F /  7.4 °C 38.2 °F /  3.4 °C 30.16in /  1021.2hPa East 15.0mph /  24.1km/h 15.0mph /  24.1km/h 76% 0.00in /  0mm
08:04 45.3 °F /  7.4 °C 38.2 °F /  3.4 °C 30.16in /  1021.2hPa East 15.0mph /  24.1km/h 15.0mph /  24.1km/h 76% 0.00in /  0mm
08:07 45.3 °F /  7.4 °C 38.2 °F /  3.4 °C 30.16in /  1021.2hPa ESE 8.0mph /  12.9km/h 12.0mph /  19.3km/h 76% 0.00in /  0mm
08:09 45.4 °F /  7.4 °C 38.3 °F /  3.5 °C 30.16in /  1021.2hPa ESE 12.0mph /  19.3km/h 12.0mph /  19.3km/h 76% 0.00in /  0mm
08:12 45.5 °F /  7.5 °C 38.0 °F /  3.3 °C 30.16in /  1021.2hPa ESE 10.0mph /  16.1km/h 13.0mph /  20.9km/h 75% 0.00in /  0mm
08:13 45.6 °F /  7.6 °C 38.2 °F /  3.4 °C 30.16in /  1021.2hPa SE 10.0mph /  16.1km/h 11.0mph /  17.7km/h 75% 0.00in /  0mm
08:14 45.6 °F /  7.6 °C 38.2 °F /  3.4 °C 30.16in /  1021.2hPa ESE 11.0mph /  17.7km/h 11.0mph /  17.7km/h 75% 0.00in /  0mm
08:18 45.7 °F /  7.6 °C 38.2 °F /  3.4 °C 30.16in /  1021.2hPa East 9.0mph /  14.5km/h 15.0mph /  24.1km/h 75% 0.00in /  0mm
08:19 45.7 °F /  7.6 °C 38.2 °F /  3.4 °C 30.16in /  1021.2hPa ESE 12.0mph /  19.3km/h 15.0mph /  24.1km/h 75% 0.00in /  0mm
08:24 45.8 °F /  7.7 °C 38.0 °F /  3.3 °C 30.16in /  1021.2hPa ESE 10.0mph /  16.1km/h 12.0mph /  19.3km/h 74% 0.00in /  0mm
08:29 45.9 °F /  7.7 °C 38.1 °F /  3.4 °C 30.16in /  1021.2hPa SE 11.0mph /  17.7km/h 12.0mph /  19.3km/h 74% 0.00in /  0mm
08:30 45.9 °F /  7.7 °C 38.1 °F /  3.4 °C 30.16in /  1021.2hPa East 8.0mph /  12.9km/h 14.0mph /  22.5km/h 74% 0.00in /  0mm
08:31 45.9 °F /  7.7 °C 38.1 °F /  3.4 °C 30.15in /  1020.9hPa ESE 8.0mph /  12.9km/h 14.0mph /  22.5km/h 74% 0.00in /  0mm
08:34 46.0 °F /  7.8 °C 38.2 °F /  3.4 °C 30.16in /  1021.2hPa ESE 11.0mph /  17.7km/h 14.0mph /  22.5km/h 74% 0.00in /  0mm
08:35 46.0 °F /  7.8 °C 38.2 °F /  3.4 °C 30.16in /  1021.2hPa ESE 11.0mph /  17.7km/h 14.0mph /  22.5km/h 74% 0.00in /  0mm
08:36 46.0 °F /  7.8 °C 38.2 °F /  3.4 °C 30.16in /  1021.2hPa ESE 9.0mph /  14.5km/h 13.0mph /  20.9km/h 74% 0.00in /  0mm
08:41 46.1 °F /  7.8 °C 37.9 °F /  3.3 °C 30.17in /  1021.6hPa ESE 12.0mph /  19.3km/h 13.0mph /  20.9km/h 73% 0.00in /  0mm
08:46 46.3 °F /  7.9 °C 38.5 °F /  3.6 °C 30.16in /  1021.2hPa East 7.0mph /  11.3km/h 13.0mph /  20.9km/h 74% 0.00in /  0mm
08:47 46.3 °F /  7.9 °C 38.5 °F /  3.6 °C 30.16in /  1021.2hPa East 7.0mph /  11.3km/h 13.0mph /  20.9km/h 74% 0.00in /  0mm
08:52 46.3 °F /  7.9 °C 38.1 °F /  3.4 °C 30.16in /  1021.2hPa East 11.0mph /  17.7km/h 14.0mph /  22.5km/h 73% 0.00in /  0mm
08:53 46.3 °F /  7.9 °C 37.8 °F /  3.2 °C 30.16in /  1021.2hPa ESE 13.0mph /  20.9km/h 20.0mph /  32.2km/h 72% 0.00in /  0mm
08:54 46.4 °F /  8 °C 37.9 °F /  3.3 °C 30.16in /  1021.2hPa ESE 10.0mph /  16.1km/h 20.0mph /  32.2km/h 72% 0.00in /  0mm
08:57 46.4 °F /  8 °C 37.5 °F /  3.1 °C 30.16in /  1021.2hPa ESE 13.0mph /  20.9km/h 16.0mph /  25.7km/h 71% 0.00in /  0mm
08:58 46.5 °F /  8.1 °C 38.0 °F /  3.3 °C 30.16in /  1021.2hPa ESE 11.0mph /  17.7km/h 16.0mph /  25.7km/h 72% 0.00in /  0mm
08:59 46.5 °F /  8.1 °C 38.0 °F /  3.3 °C 30.16in /  1021.2hPa ESE 10.0mph /  16.1km/h 16.0mph /  25.7km/h 72% 0.00in /  0mm
09:03 46.6 °F /  8.1 °C 38.1 °F /  3.4 °C 30.17in /  1021.6hPa SE 10.0mph /  16.1km/h 18.0mph /  29km/h 72% 0.00in /  0mm
09:04 46.6 °F /  8.1 °C 37.7 °F /  3.2 °C 30.17in /  1021.6hPa SSE 14.0mph /  22.5km/h 15.0mph /  24.1km/h 71% 0.00in /  0mm
09:05 46.7 °F /  8.2 °C 37.8 °F /  3.2 °C 30.17in /  1021.6hPa East 14.0mph /  22.5km/h 15.0mph /  24.1km/h 71% 0.00in /  0mm
09:09 46.9 °F /  8.3 °C 37.6 °F /  3.1 °C 30.17in /  1021.6hPa ESE 9.0mph /  14.5km/h 17.0mph /  27.4km/h 70% 0.00in /  0mm
09:10 46.9 °F /  8.3 °C 37.6 °F /  3.1 °C 30.17in /  1021.6hPa ESE 13.0mph /  20.9km/h 14.0mph /  22.5km/h 70% 0.00in /  0mm
09:14 47.1 °F /  8.4 °C 38.2 °F /  3.4 °C 30.18in /  1021.9hPa ESE 9.0mph /  14.5km/h 15.0mph /  24.1km/h 71% 0.00in /  0mm
09:15 47.1 °F /  8.4 °C 38.2 °F /  3.4 °C 30.18in /  1021.9hPa SE 10.0mph /  16.1km/h 14.0mph /  22.5km/h 71% 0.00in /  0mm
09:19 47.3 °F /  8.5 °C 37.7 °F /  3.2 °C 30.18in /  1021.9hPa SE 14.0mph /  22.5km/h 16.0mph /  25.7km/h 69% 0.00in /  0mm
09:24 47.4 °F /  8.6 °C 37.4 °F /  3 °C 30.17in /  1021.6hPa ESE 16.0mph /  25.7km/h 17.0mph /  27.4km/h 68% 0.00in /  0mm
09:25 47.4 °F /  8.6 °C 37.4 °F /  3 °C 30.17in /  1021.6hPa ESE 16.0mph /  25.7km/h 17.0mph /  27.4km/h 68% 0.00in /  0mm
09:30 47.6 °F /  8.7 °C 37.6 °F /  3.1 °C 30.17in /  1021.6hPa ESE 9.0mph /  14.5km/h 19.0mph /  30.6km/h 68% 0.00in /  0mm
09:31 47.6 °F /  8.7 °C 37.6 °F /  3.1 °C 30.17in /  1021.6hPa SE 6.0mph /  9.7km/h 19.0mph /  30.6km/h 68% 0.00in /  0mm
09:35 47.9 °F /  8.8 °C 37.9 °F /  3.3 °C 30.17in /  1021.6hPa SE 12.0mph /  19.3km/h 17.0mph /  27.4km/h 68% 0.00in /  0mm
09:36 47.9 °F /  8.8 °C 37.5 °F /  3.1 °C 30.17in /  1021.6hPa ESE 11.0mph /  17.7km/h 17.0mph /  27.4km/h 67% 0.00in /  0mm
09:40 48.1 °F /  8.9 °C 37.3 °F /  2.9 °C 30.18in /  1021.9hPa ESE 11.0mph /  17.7km/h 16.0mph /  25.7km/h 66% 0.00in /  0mm
09:41 48.2 °F /  9 °C 37.4 °F /  3 °C 30.18in /  1021.9hPa ESE 15.0mph /  24.1km/h 16.0mph /  25.7km/h 66% 0.00in /  0mm
09:46 48.5 °F /  9.2 °C 37.7 °F /  3.2 °C 30.18in /  1021.9hPa ESE 11.0mph /  17.7km/h 19.0mph /  30.6km/h 66% 0.00in /  0mm
09:47 48.5 °F /  9.2 °C 37.7 °F /  3.2 °C 30.18in /  1021.9hPa ESE 12.0mph /  19.3km/h 19.0mph /  30.6km/h 66% 0.00in /  0mm
09:51 48.7 °F /  9.3 °C 38.2 °F /  3.4 °C 30.18in /  1021.9hPa SE 7.0mph /  11.3km/h 13.0mph /  20.9km/h 67% 0.00in /  0mm
09:52 48.8 °F /  9.3 °C 38.3 °F /  3.5 °C 30.17in /  1021.6hPa ESE 10.0mph /  16.1km/h 10.0mph /  16.1km/h 67% 0.00in /  0mm
09:54 48.8 °F /  9.3 °C 37.6 °F /  3.1 °C 30.18in /  1021.9hPa ESE 22.0mph /  35.4km/h 22.0mph /  35.4km/h 65% 0.00in /  0mm
09:56 48.8 °F /  9.3 °C 37.2 °F /  2.9 °C 30.17in /  1021.6hPa SE 11.0mph /  17.7km/h 22.0mph /  35.4km/h 64% 0.00in /  0mm
09:57 48.8 °F /  9.3 °C 37.2 °F /  2.9 °C 30.17in /  1021.6hPa ESE 12.0mph /  19.3km/h 22.0mph /  35.4km/h 64% 0.00in /  0mm
09:59 48.8 °F /  9.3 °C 37.6 °F /  3.1 °C 30.17in /  1021.6hPa ESE 17.0mph /  27.4km/h 17.0mph /  27.4km/h 65% 0.00in /  0mm
10:01 48.9 °F /  9.4 °C 37.7 °F /  3.2 °C 30.16in /  1021.2hPa ESE 15.0mph /  24.1km/h 18.0mph /  29km/h 65% 0.00in /  0mm
10:02 48.9 °F /  9.4 °C 37.7 °F /  3.2 °C 30.16in /  1021.2hPa SE 16.0mph /  25.7km/h 18.0mph /  29km/h 65% 0.00in /  0mm
10:05 49.0 °F /  9.4 °C 37.4 °F /  3 °C 30.17in /  1021.6hPa ESE 10.0mph /  16.1km/h 17.0mph /  27.4km/h 64% 0.00in /  0mm
10:06 49.0 °F /  9.4 °C 37.0 °F /  2.8 °C 30.17in /  1021.6hPa SE 15.0mph /  24.1km/h 17.0mph /  27.4km/h 63% 0.00in /  0mm
10:07 49.1 °F /  9.5 °C 37.1 °F /  2.8 °C 30.17in /  1021.6hPa ESE 20.0mph /  32.2km/h 21.0mph /  33.8km/h 63% 0.00in /  0mm
10:10 49.1 °F /  9.5 °C 37.5 °F /  3.1 °C 30.17in /  1021.6hPa SE 15.0mph /  24.1km/h 19.0mph /  30.6km/h 64% 0.00in /  0mm
10:15 49.4 °F /  9.7 °C 37.8 °F /  3.2 °C 30.17in /  1021.6hPa ESE 9.0mph /  14.5km/h 22.0mph /  35.4km/h 64% 0.00in /  0mm
10:16 49.5 °F /  9.7 °C 37.8 °F /  3.2 °C 30.17in /  1021.6hPa SE 15.0mph /  24.1km/h 18.0mph /  29km/h 64% 0.00in /  0mm
10:21 49.7 °F /  9.8 °C 38.4 °F /  3.6 °C 30.16in /  1021.2hPa ESE 17.0mph /  27.4km/h 19.0mph /  30.6km/h 65% 0.00in /  0mm
10:26 50.0 °F /  10 °C 38.3 °F /  3.5 °C 30.16in /  1021.2hPa ESE 12.0mph /  19.3km/h 16.0mph /  25.7km/h 64% 0.00in /  0mm
10:27 50.1 °F /  10.1 °C 38.4 °F /  3.6 °C 30.16in /  1021.2hPa East 12.0mph /  19.3km/h 14.0mph /  22.5km/h 64% 0.00in /  0mm
10:32 50.0 °F /  10 °C 37.5 °F /  3.1 °C 30.16in /  1021.2hPa ESE 16.0mph /  25.7km/h 19.0mph /  30.6km/h 62% 0.00in /  0mm
10:33 50.0 °F /  10 °C 37.9 °F /  3.3 °C 30.15in /  1020.9hPa East 16.0mph /  25.7km/h 18.0mph /  29km/h 63% 0.00in /  0mm
10:36 50.1 °F /  10.1 °C 38.0 °F /  3.3 °C 30.15in /  1020.9hPa ESE 12.0mph /  19.3km/h 19.0mph /  30.6km/h 63% 0.00in /  0mm
10:38 50.4 °F /  10.2 °C 39.1 °F /  3.9 °C 30.15in /  1020.9hPa ESE 17.0mph /  27.4km/h 17.0mph /  27.4km/h 65% 0.00in /  0mm
10:41 50.5 °F /  10.3 °C 38.4 °F /  3.6 °C 30.16in /  1021.2hPa ESE 14.0mph /  22.5km/h 19.0mph /  30.6km/h 63% 0.00in /  0mm
10:43 50.5 °F /  10.3 °C 38.0 °F /  3.3 °C 30.15in /  1020.9hPa ESE 14.0mph /  22.5km/h 19.0mph /  30.6km/h 62% 0.00in /  0mm
10:48 50.5 °F /  10.3 °C 38.0 °F /  3.3 °C 30.15in /  1020.9hPa ESE 20.0mph /  32.2km/h 23.0mph /  37km/h 62% 0.00in /  0mm
10:53 50.8 °F /  10.4 °C 38.3 °F /  3.5 °C 30.15in /  1020.9hPa ESE 17.0mph /  27.4km/h 21.0mph /  33.8km/h 62% 0.00in /  0mm
10:54 50.8 °F /  10.4 °C 38.7 °F /  3.7 °C 30.15in /  1020.9hPa East 16.0mph /  25.7km/h 21.0mph /  33.8km/h 63% 0.00in /  0mm
10:55 50.8 °F /  10.4 °C 38.7 °F /  3.7 °C 30.14in /  1020.5hPa ESE 20.0mph /  32.2km/h 23.0mph /  37km/h 63% 0.00in /  0mm
10:56 50.9 °F /  10.5 °C 38.4 °F /  3.6 °C 30.14in /  1020.5hPa ESE 17.0mph /  27.4km/h 23.0mph /  37km/h 62% 0.00in /  0mm
10:59 51.0 °F /  10.6 °C 38.5 °F /  3.6 °C 30.14in /  1020.5hPa SE 20.0mph /  32.2km/h 22.0mph /  35.4km/h 62% 0.00in /  0mm
11:00 51.0 °F /  10.6 °C 38.5 °F /  3.6 °C 30.14in /  1020.5hPa SE 19.0mph /  30.6km/h 23.0mph /  37km/h 62% 0.00in /  0mm
11:01 51.0 °F /  10.6 °C 38.0 °F /  3.3 °C 30.14in /  1020.5hPa ESE 17.0mph /  27.4km/h 23.0mph /  37km/h 61% 0.00in /  0mm
11:06 51.2 °F /  10.7 °C 38.2 °F /  3.4 °C 30.14in /  1020.5hPa SE 12.0mph /  19.3km/h 21.0mph /  33.8km/h 61% 0.00in /  0mm
11:07 51.2 °F /  10.7 °C 38.6 °F /  3.7 °C 30.14in /  1020.5hPa SE 19.0mph /  30.6km/h 21.0mph /  33.8km/h 62% 0.00in /  0mm
11:11 51.2 °F /  10.7 °C 39.0 °F /  3.9 °C 30.14in /  1020.5hPa SE 13.0mph /  20.9km/h 21.0mph /  33.8km/h 63% 0.00in /  0mm
11:12 51.2 °F /  10.7 °C 39.0 °F /  3.9 °C 30.14in /  1020.5hPa SE 11.0mph /  17.7km/h 21.0mph /  33.8km/h 63% 0.00in /  0mm
11:16 51.4 °F /  10.8 °C 38.4 °F /  3.6 °C 30.14in /  1020.5hPa ESE 19.0mph /  30.6km/h 24.0mph /  38.6km/h 61% 0.00in /  0mm
11:17 51.4 °F /  10.8 °C 38.4 °F /  3.6 °C 30.14in /  1020.5hPa ESE 14.0mph /  22.5km/h 24.0mph /  38.6km/h 61% 0.00in /  0mm
11:22 51.6 °F /  10.9 °C 39.0 °F /  3.9 °C 30.13in /  1020.2hPa ESE 19.0mph /  30.6km/h 22.0mph /  35.4km/h 62% 0.00in /  0mm
11:27 51.5 °F /  10.8 °C 38.5 °F /  3.6 °C 30.13in /  1020.2hPa ESE 16.0mph /  25.7km/h 23.0mph /  37km/h 61% 0.00in /  0mm
11:28 51.5 °F /  10.8 °C 38.9 °F /  3.8 °C 30.13in /  1020.2hPa ESE 22.0mph /  35.4km/h 23.0mph /  37km/h 62% 0.00in /  0mm
11:33 51.4 °F /  10.8 °C 38.4 °F /  3.6 °C 30.13in /  1020.2hPa SE 13.0mph /  20.9km/h 22.0mph /  35.4km/h 61% 0.00in /  0mm
11:38 51.6 °F /  10.9 °C 39.8 °F /  4.3 °C 30.14in /  1020.5hPa ESE 10.0mph /  16.1km/h 16.0mph /  25.7km/h 64% 0.00in /  0mm
11:44 51.9 °F /  11.1 °C 40.1 °F /  4.5 °C 30.14in /  1020.5hPa SE 8.0mph /  12.9km/h 17.0mph /  27.4km/h 64% 0.00in /  0mm
11:49 52.0 °F /  11.1 °C 39.4 °F /  4.1 °C 30.14in /  1020.5hPa East 13.0mph /  20.9km/h 18.0mph /  29km/h 62% 0.00in /  0mm
11:50 52.0 °F /  11.1 °C 39.8 °F /  4.3 °C 30.14in /  1020.5hPa ESE 15.0mph /  24.1km/h 18.0mph /  29km/h 63% 0.00in /  0mm
11:54 52.1 °F /  11.2 °C 39.1 °F /  3.9 °C 30.14in /  1020.5hPa East 15.0mph /  24.1km/h 23.0mph /  37km/h 61% 0.00in /  0mm
11:55 52.1 °F /  11.2 °C 39.5 °F /  4.2 °C 30.14in /  1020.5hPa SE 8.0mph /  12.9km/h 23.0mph /  37km/h 62% 0.00in /  0mm
11:56 52.1 °F /  11.2 °C 39.5 °F /  4.2 °C 30.14in /  1020.5hPa ESE 13.0mph /  20.9km/h 23.0mph /  37km/h 62% 0.00in /  0mm
11:58 52.3 °F /  11.3 °C 39.7 °F /  4.3 °C 30.14in /  1020.5hPa ESE 17.0mph /  27.4km/h 17.0mph /  27.4km/h 62% 0.00in /  0mm
12:00 52.3 °F /  11.3 °C 39.7 °F /  4.3 °C 30.14in /  1020.5hPa SE 18.0mph /  29km/h 19.0mph /  30.6km/h 62% 0.00in /  0mm
12:01 52.3 °F /  11.3 °C 39.7 °F /  4.3 °C 30.14in /  1020.5hPa SE 11.0mph /  17.7km/h 19.0mph /  30.6km/h 62% 0.00in /  0mm
12:03 52.3 °F /  11.3 °C 40.1 °F /  4.5 °C 30.14in /  1020.5hPa ESE 12.0mph /  19.3km/h 20.0mph /  32.2km/h 63% 0.00in /  0mm
12:05 52.3 °F /  11.3 °C 40.1 °F /  4.5 °C 30.14in /  1020.5hPa SE 15.0mph /  24.1km/h 20.0mph /  32.2km/h 63% 0.00in /  0mm
12:06 52.2 °F /  11.2 °C 39.6 °F /  4.2 °C 30.14in /  1020.5hPa SE 16.0mph /  25.7km/h 20.0mph /  32.2km/h 62% 0.00in /  0mm
12:09 52.2 °F /  11.2 °C 39.6 °F /  4.2 °C 30.14in /  1020.5hPa ESE 12.0mph /  19.3km/h 19.0mph /  30.6km/h 62% 0.00in /  0mm
12:10 52.2 °F /  11.2 °C 39.6 °F /  4.2 °C 30.14in /  1020.5hPa SE 15.0mph /  24.1km/h 19.0mph /  30.6km/h 62% 0.00in /  0mm
12:11 52.2 °F /  11.2 °C 39.6 °F /  4.2 °C 30.13in /  1020.2hPa ESE 15.0mph /  24.1km/h 20.0mph /  32.2km/h 62% 0.00in /  0mm
12:12 52.2 °F /  11.2 °C 40.0 °F /  4.4 °C 30.13in /  1020.2hPa ESE 16.0mph /  25.7km/h 20.0mph /  32.2km/h 63% 0.00in /  0mm
12:14 52.2 °F /  11.2 °C 39.6 °F /  4.2 °C 30.13in /  1020.2hPa SE 19.0mph /  30.6km/h 23.0mph /  37km/h 62% 0.00in /  0mm
12:16 52.1 °F /  11.2 °C 39.1 °F /  3.9 °C 30.13in /  1020.2hPa SE 15.0mph /  24.1km/h 22.0mph /  35.4km/h 61% 0.00in /  0mm
12:21 52.3 °F /  11.3 °C 40.1 °F /  4.5 °C 30.12in /  1019.9hPa SE 17.0mph /  27.4km/h 20.0mph /  32.2km/h 63% 0.00in /  0mm
12:22 52.3 °F /  11.3 °C 40.1 °F /  4.5 °C 30.12in /  1019.9hPa ESE 14.0mph /  22.5km/h 20.0mph /  32.2km/h 63% 0.00in /  0mm
12:27 52.5 °F /  11.4 °C 40.3 °F /  4.6 °C 30.12in /  1019.9hPa SE 11.0mph /  17.7km/h 15.0mph /  24.1km/h 63% 0.00in /  0mm
12:28 52.5 °F /  11.4 °C 40.3 °F /  4.6 °C 30.12in /  1019.9hPa SE 11.0mph /  17.7km/h 15.0mph /  24.1km/h 63% 0.00in /  0mm
12:32 52.6 °F /  11.4 °C 40.0 °F /  4.4 °C 30.13in /  1020.2hPa SE 15.0mph /  24.1km/h 15.0mph /  24.1km/h 62% 0.00in /  0mm
12:33 52.7 °F /  11.5 °C 40.1 °F /  4.5 °C 30.13in /  1020.2hPa SSE 10.0mph /  16.1km/h 17.0mph /  27.4km/h 62% 0.00in /  0mm
12:37 52.7 °F /  11.5 °C 40.1 °F /  4.5 °C 30.14in /  1020.5hPa SE 13.0mph /  20.9km/h 17.0mph /  27.4km/h 62% 0.00in /  0mm
12:38 52.7 °F /  11.5 °C 40.1 °F /  4.5 °C 30.13in /  1020.2hPa ESE 19.0mph /  30.6km/h 19.0mph /  30.6km/h 62% 0.00in /  0mm
12:42 52.9 °F /  11.6 °C 39.8 °F /  4.3 °C 30.14in /  1020.5hPa SE 16.0mph /  25.7km/h 19.0mph /  30.6km/h 61% 0.00in /  0mm
12:43 52.9 °F /  11.6 °C 39.8 °F /  4.3 °C 30.14in /  1020.5hPa SE 20.0mph /  32.2km/h 20.0mph /  32.2km/h 61% 0.00in /  0mm
12:48 53.0 °F /  11.7 °C 40.3 °F /  4.6 °C 30.13in /  1020.2hPa SE 18.0mph /  29km/h 19.0mph /  30.6km/h 62% 0.00in /  0mm
12:51 53.0 °F /  11.7 °C 39.9 °F /  4.4 °C 30.13in /  1020.2hPa ESE 19.0mph /  30.6km/h 23.0mph /  37km/h 61% 0.00in /  0mm
12:53 53.0 °F /  11.7 °C 40.3 °F /  4.6 °C 30.12in /  1019.9hPa SE 15.0mph /  24.1km/h 20.0mph /  32.2km/h 62% 0.00in /  0mm
12:54 53.0 °F /  11.7 °C 40.3 °F /  4.6 °C 30.12in /  1019.9hPa SE 17.0mph /  27.4km/h 20.0mph /  32.2km/h 62% 0.00in /  0mm
12:55 53.0 °F /  11.7 °C 39.9 °F /  4.4 °C 30.12in /  1019.9hPa ESE 15.0mph /  24.1km/h 24.0mph /  38.6km/h 61% 0.00in /  0mm
12:59 52.9 °F /  11.6 °C 40.2 °F /  4.6 °C 30.12in /  1019.9hPa SSE 14.0mph /  22.5km/h 17.0mph /  27.4km/h 62% 0.00in /  0mm
13:01 52.9 °F /  11.6 °C 39.8 °F /  4.3 °C 30.11in /  1019.5hPa East 15.0mph /  24.1km/h 23.0mph /  37km/h 61% 0.00in /  0mm
13:06 52.7 °F /  11.5 °C 40.1 °F /  4.5 °C 30.11in /  1019.5hPa SE 13.0mph /  20.9km/h 21.0mph /  33.8km/h 62% 0.00in /  0mm
13:07 52.7 °F /  11.5 °C 40.1 °F /  4.5 °C 30.11in /  1019.5hPa SE 13.0mph /  20.9km/h 21.0mph /  33.8km/h 62% 0.00in /  0mm
13:11 52.6 °F /  11.4 °C 40.0 °F /  4.4 °C 30.11in /  1019.5hPa ESE 13.0mph /  20.9km/h 21.0mph /  33.8km/h 62% 0.00in /  0mm
13:12 52.6 °F /  11.4 °C 40.4 °F /  4.7 °C 30.11in /  1019.5hPa SE 11.0mph /  17.7km/h 21.0mph /  33.8km/h 63% 0.00in /  0mm
13:17 52.7 °F /  11.5 °C 40.1 °F /  4.5 °C 30.11in /  1019.5hPa SE 13.0mph /  20.9km/h 17.0mph /  27.4km/h 62% 0.00in /  0mm
13:18 52.7 °F /  11.5 °C 40.5 °F /  4.7 °C 30.11in /  1019.5hPa ESE 11.0mph /  17.7km/h 17.0mph /  27.4km/h 63% 0.00in /  0mm
13:22 52.7 °F /  11.5 °C 40.5 °F /  4.7 °C 30.11in /  1019.5hPa SE 11.0mph /  17.7km/h 18.0mph /  29km/h 63% 0.00in /  0mm
13:23 52.8 °F /  11.6 °C 40.6 °F /  4.8 °C 30.11in /  1019.5hPa SE 13.0mph /  20.9km/h 17.0mph /  27.4km/h 63% 0.00in /  0mm
13:28 52.9 °F /  11.6 °C 40.2 °F /  4.6 °C 30.11in /  1019.5hPa SE 15.0mph /  24.1km/h 19.0mph /  30.6km/h 62% 0.00in /  0mm
13:29 52.9 °F /  11.6 °C 40.2 °F /  4.6 °C 30.11in /  1019.5hPa SE 13.0mph /  20.9km/h 17.0mph /  27.4km/h 62% 0.00in /  0mm
13:33 53.0 °F /  11.7 °C 40.8 °F /  4.9 °C 30.11in /  1019.5hPa SE 7.0mph /  11.3km/h 11.0mph /  17.7km/h 63% 0.00in /  0mm
13:34 53.0 °F /  11.7 °C 40.8 °F /  4.9 °C 30.11in /  1019.5hPa SSE 8.0mph /  12.9km/h 11.0mph /  17.7km/h 63% 0.00in /  0mm
13:35 53.0 °F /  11.7 °C 40.8 °F /  4.9 °C 30.11in /  1019.5hPa ESE 14.0mph /  22.5km/h 17.0mph /  27.4km/h 63% 0.00in /  0mm
13:38 53.0 °F /  11.7 °C 40.8 °F /  4.9 °C 30.11in /  1019.5hPa SE 16.0mph /  25.7km/h 21.0mph /  33.8km/h 63% 0.00in /  0mm
13:39 53.0 °F /  11.7 °C 40.8 °F /  4.9 °C 30.11in /  1019.5hPa SE 8.0mph /  12.9km/h 21.0mph /  33.8km/h 63% 0.00in /  0mm
13:41 53.0 °F /  11.7 °C 40.3 °F /  4.6 °C 30.11in /  1019.5hPa SE 13.0mph /  20.9km/h 20.0mph /  32.2km/h 62% 0.00in /  0mm
13:44 52.9 °F /  11.6 °C 40.2 °F /  4.6 °C 30.10in /  1019.2hPa SE 16.0mph /  25.7km/h 21.0mph /  33.8km/h 62% 0.00in /  0mm
13:46 52.9 °F /  11.6 °C 40.7 °F /  4.8 °C 30.10in /  1019.2hPa SE 9.0mph /  14.5km/h 21.0mph /  33.8km/h 63% 0.00in /  0mm
13:49 52.9 °F /  11.6 °C 40.7 °F /  4.8 °C 30.10in /  1019.2hPa SE 8.0mph /  12.9km/h 15.0mph /  24.1km/h 63% 0.00in /  0mm
13:54 52.9 °F /  11.6 °C 40.7 °F /  4.8 °C 30.10in /  1019.2hPa SSE 8.0mph /  12.9km/h 14.0mph /  22.5km/h 63% 0.00in /  0mm
13:55 52.9 °F /  11.6 °C 40.7 °F /  4.8 °C 30.11in /  1019.5hPa SSE 11.0mph /  17.7km/h 14.0mph /  22.5km/h 63% 0.00in /  0mm
13:59 52.7 °F /  11.5 °C 40.9 °F /  4.9 °C 30.10in /  1019.2hPa ESE 14.0mph /  22.5km/h 15.0mph /  24.1km/h 64% 0.00in /  0mm
14:01 52.7 °F /  11.5 °C 40.9 °F /  4.9 °C 30.11in /  1019.5hPa SSE 13.0mph /  20.9km/h 15.0mph /  24.1km/h 64% 0.00in /  0mm
14:04 52.6 °F /  11.4 °C 40.8 °F /  4.9 °C 30.11in /  1019.5hPa SSE 15.0mph /  24.1km/h 18.0mph /  29km/h 64% 0.00in /  0mm
14:05 52.6 °F /  11.4 °C 40.4 °F /  4.7 °C 30.11in /  1019.5hPa SSE 9.0mph /  14.5km/h 15.0mph /  24.1km/h 63% 0.00in /  0mm
14:06 52.5 °F /  11.4 °C 40.7 °F /  4.8 °C 30.11in /  1019.5hPa ESE 16.0mph /  25.7km/h 16.0mph /  25.7km/h 64% 0.00in /  0mm
14:10 52.4 °F /  11.3 °C 40.6 °F /  4.8 °C 30.09in /  1018.8hPa ESE 17.0mph /  27.4km/h 17.0mph /  27.4km/h 64% 0.00in /  0mm
14:11 52.3 °F /  11.3 °C 40.5 °F /  4.7 °C 30.08in /  1018.5hPa ESE 19.0mph /  30.6km/h 19.0mph /  30.6km/h 64% 0.00in /  0mm
14:15 51.7 °F /  10.9 °C 41.5 °F /  5.3 °C 30.08in /  1018.5hPa SE 9.0mph /  14.5km/h 22.0mph /  35.4km/h 68% 0.00in /  0mm
14:16 51.4 °F /  10.8 °C 42.0 °F /  5.6 °C 30.08in /  1018.5hPa East 17.0mph /  27.4km/h 18.0mph /  29km/h 70% 0.37in /  9.4mm
14:20 50.7 °F /  10.4 °C 42.4 °F /  5.8 °C 30.08in /  1018.5hPa ESE 12.0mph /  19.3km/h 17.0mph /  27.4km/h 73% 0.14in /  3.56mm
14:22 50.4 °F /  10.2 °C 42.1 °F /  5.6 °C 30.08in /  1018.5hPa SE 12.0mph /  19.3km/h 17.0mph /  27.4km/h 73% 0.09in /  2.29mm
14:25 50.0 °F /  10 °C 42.4 °F /  5.8 °C 30.09in /  1018.8hPa ESE 10.0mph /  16.1km/h 13.0mph /  20.9km/h 75% 0.08in /  2.03mm
14:26 50.0 °F /  10 °C 42.4 °F /  5.8 °C 30.09in /  1018.8hPa ESE 10.0mph /  16.1km/h 13.0mph /  20.9km/h 75% 0.08in /  2.03mm
14:29 49.8 °F /  9.9 °C 42.9 °F /  6.1 °C 30.09in /  1018.8hPa SSE 10.0mph /  16.1km/h 12.0mph /  19.3km/h 77% 0.08in /  2.03mm
14:30 49.7 °F /  9.8 °C 42.8 °F /  6 °C 30.09in /  1018.8hPa SE 10.0mph /  16.1km/h 12.0mph /  19.3km/h 77% 0.08in /  2.03mm
14:31 49.7 °F /  9.8 °C 42.8 °F /  6 °C 30.09in /  1018.8hPa SE 11.0mph /  17.7km/h 12.0mph /  19.3km/h 77% 0.08in /  2.03mm
14:36 49.6 °F /  9.8 °C 43.0 °F /  6.1 °C 30.09in /  1018.8hPa SSE 7.0mph /  11.3km/h 14.0mph /  22.5km/h 78% 0.05in /  1.27mm
14:37 49.5 °F /  9.7 °C 42.6 °F /  5.9 °C 30.09in /  1018.8hPa SE 16.0mph /  25.7km/h 17.0mph /  27.4km/h 77% 0.04in /  1.02mm
14:42 49.2 °F /  9.6 °C 43.0 °F /  6.1 °C 30.09in /  1018.8hPa SE 10.0mph /  16.1km/h 16.0mph /  25.7km/h 79% 0.04in /  1.02mm
14:43 49.2 °F /  9.6 °C 43.0 °F /  6.1 °C 30.09in /  1018.8hPa SE 10.0mph /  16.1km/h 16.0mph /  25.7km/h 79% 0.04in /  1.02mm
14:48 48.9 °F /  9.4 °C 43.3 °F /  6.3 °C 30.09in /  1018.8hPa SE 12.0mph /  19.3km/h 14.0mph /  22.5km/h 81% 0.09in /  2.29mm
14:53 48.6 °F /  9.2 °C 43.7 °F /  6.5 °C 30.09in /  1018.8hPa SE 10.0mph /  16.1km/h 13.0mph /  20.9km/h 83% 0.09in /  2.29mm
14:56 48.4 °F /  9.1 °C 43.8 °F /  6.6 °C 30.08in /  1018.5hPa SE 13.0mph /  20.9km/h 17.0mph /  27.4km/h 84% 0.14in /  3.56mm
14:57 48.4 °F /  9.1 °C 43.8 °F /  6.6 °C 30.08in /  1018.5hPa ESE 12.0mph /  19.3km/h 17.0mph /  27.4km/h 84% 0.14in /  3.56mm
14:58 48.2 °F /  9 °C 43.9 °F /  6.6 °C 30.08in /  1018.5hPa SE 11.0mph /  17.7km/h 18.0mph /  29km/h 85% 0.14in /  3.56mm
14:59 48.2 °F /  9 °C 43.9 °F /  6.6 °C 30.08in /  1018.5hPa SE 11.0mph /  17.7km/h 18.0mph /  29km/h 85% 0.14in /  3.56mm
15:03 48.0 °F /  8.9 °C 44.0 °F /  6.7 °C 30.07in /  1018.2hPa SE 13.0mph /  20.9km/h 16.0mph /  25.7km/h 86% 0.10in /  2.54mm
15:04 48.0 °F /  8.9 °C 43.7 °F /  6.5 °C 30.07in /  1018.2hPa SE 13.0mph /  20.9km/h 16.0mph /  25.7km/h 85% 0.10in /  2.54mm
15:05 47.9 °F /  8.8 °C 43.9 °F /  6.6 °C 30.07in /  1018.2hPa SE 14.0mph /  22.5km/h 16.0mph /  25.7km/h 86% 0.10in /  2.54mm
15:09 47.7 °F /  8.7 °C 44.0 °F /  6.7 °C 30.07in /  1018.2hPa SE 10.0mph /  16.1km/h 17.0mph /  27.4km/h 87% 0.24in /  6.1mm
15:10 47.6 °F /  8.7 °C 43.9 °F /  6.6 °C 30.07in /  1018.2hPa SE 16.0mph /  25.7km/h 17.0mph /  27.4km/h 87% 0.33in /  8.38mm
15:14 47.4 °F /  8.6 °C 44.0 °F /  6.7 °C 30.07in /  1018.2hPa ESE 8.0mph /  12.9km/h 18.0mph /  29km/h 88% 0.11in /  2.79mm
15:15 47.4 °F /  8.6 °C 44.0 °F /  6.7 °C 30.07in /  1018.2hPa ESE 8.0mph /  12.9km/h 18.0mph /  29km/h 88% 0.11in /  2.79mm
15:20 47.4 °F /  8.6 °C 44.0 °F /  6.7 °C 30.07in /  1018.2hPa ESE 12.0mph /  19.3km/h 16.0mph /  25.7km/h 88% 0.06in /  1.52mm
15:21 47.4 °F /  8.6 °C 44.0 °F /  6.7 °C 30.07in /  1018.2hPa SE 14.0mph /  22.5km/h 16.0mph /  25.7km/h 88% 0.05in /  1.27mm
15:26 47.4 °F /  8.6 °C 44.3 °F /  6.8 °C 30.07in /  1018.2hPa ESE 11.0mph /  17.7km/h 13.0mph /  20.9km/h 89% 0.04in /  1.02mm
15:32 47.6 °F /  8.7 °C 44.2 °F /  6.8 °C 30.08in /  1018.5hPa SSE 11.0mph /  17.7km/h 18.0mph /  29km/h 88% 0.00in /  0mm
15:37 47.7 °F /  8.7 °C 44.3 °F /  6.8 °C 30.08in /  1018.5hPa SE 11.0mph /  17.7km/h 13.0mph /  20.9km/h 88% 0.00in /  0mm
15:42 47.8 °F /  8.8 °C 44.1 °F /  6.7 °C 30.10in /  1019.2hPa SSE 9.0mph /  14.5km/h 14.0mph /  22.5km/h 87% 0.00in /  0mm
15:47 48.0 °F /  8.9 °C 44.3 °F /  6.8 °C 30.09in /  1018.8hPa ESE 8.0mph /  12.9km/h 11.0mph /  17.7km/h 87% 0.00in /  0mm
15:52 47.9 °F /  8.8 °C 44.5 °F /  6.9 °C 30.09in /  1018.8hPa SSE 6.0mph /  9.7km/h 11.0mph /  17.7km/h 88% 0.00in /  0mm
15:53 47.9 °F /  8.8 °C 44.5 °F /  6.9 °C 30.09in /  1018.8hPa SSE 6.0mph /  9.7km/h 11.0mph /  17.7km/h 88% 0.00in /  0mm
15:54 47.9 °F /  8.8 °C 44.5 °F /  6.9 °C 30.09in /  1018.8hPa ESE 10.0mph /  16.1km/h 11.0mph /  17.7km/h 88% 0.05in /  1.27mm
15:55 47.9 °F /  8.8 °C 44.5 °F /  6.9 °C 30.09in /  1018.8hPa ESE 12.0mph /  19.3km/h 14.0mph /  22.5km/h 88% 0.05in /  1.27mm
15:57 47.8 °F /  8.8 °C 44.4 °F /  6.9 °C 30.08in /  1018.5hPa ESE 14.0mph /  22.5km/h 16.0mph /  25.7km/h 88% 0.16in /  4.06mm
15:58 47.8 °F /  8.8 °C 44.4 °F /  6.9 °C 30.08in /  1018.5hPa ESE 8.0mph /  12.9km/h 16.0mph /  25.7km/h 88% 0.16in /  4.06mm
15:59 47.7 °F /  8.7 °C 44.6 °F /  7 °C 30.08in /  1018.5hPa ESE 7.0mph /  11.3km/h 16.0mph /  25.7km/h 89% 0.16in /  4.06mm
16:00 47.7 °F /  8.7 °C 44.6 °F /  7 °C 30.08in /  1018.5hPa ESE 7.0mph /  11.3km/h 16.0mph /  25.7km/h 89% 0.16in /  4.06mm
16:04 47.5 °F /  8.6 °C 44.7 °F /  7.1 °C 30.07in /  1018.2hPa ESE 11.0mph /  17.7km/h 13.0mph /  20.9km/h 90% 0.19in /  4.83mm
16:05 47.5 °F /  8.6 °C 44.7 °F /  7.1 °C 30.07in /  1018.2hPa ESE 7.0mph /  11.3km/h 12.0mph /  19.3km/h 90% 0.12in /  3.05mm
16:09 47.5 °F /  8.6 °C 44.7 °F /  7.1 °C 30.07in /  1018.2hPa ESE 10.0mph /  16.1km/h 17.0mph /  27.4km/h 90% 0.08in /  2.03mm
16:10 47.5 °F /  8.6 °C 44.7 °F /  7.1 °C 30.07in /  1018.2hPa ESE 13.0mph /  20.9km/h 17.0mph /  27.4km/h 90% 0.08in /  2.03mm
16:14 47.5 °F /  8.6 °C 44.7 °F /  7.1 °C 30.07in /  1018.2hPa ESE 9.0mph /  14.5km/h 17.0mph /  27.4km/h 90% 0.08in /  2.03mm
16:16 47.5 °F /  8.6 °C 45.0 °F /  7.2 °C 30.06in /  1017.8hPa SE 11.0mph /  17.7km/h 16.0mph /  25.7km/h 91% 0.08in /  2.03mm
16:20 47.6 °F /  8.7 °C 44.8 °F /  7.1 °C 30.06in /  1017.8hPa ESE 14.0mph /  22.5km/h 19.0mph /  30.6km/h 90% 0.05in /  1.27mm
16:21 47.5 °F /  8.6 °C 44.7 °F /  7.1 °C 30.06in /  1017.8hPa SE 11.0mph /  17.7km/h 19.0mph /  30.6km/h 90% 0.05in /  1.27mm
16:26 47.5 °F /  8.6 °C 44.7 °F /  7.1 °C 30.07in /  1018.2hPa ESE 11.0mph /  17.7km/h 19.0mph /  30.6km/h 90% 0.00in /  0mm
16:27 47.5 °F /  8.6 °C 44.7 °F /  7.1 °C 30.07in /  1018.2hPa ESE 15.0mph /  24.1km/h 19.0mph /  30.6km/h 90% 0.00in /  0mm
16:29 47.4 °F /  8.6 °C 44.6 °F /  7 °C 30.07in /  1018.2hPa SE 16.0mph /  25.7km/h 16.0mph /  25.7km/h 90% 0.00in /  0mm
16:32 47.4 °F /  8.6 °C 44.6 °F /  7 °C 30.06in /  1017.8hPa ESE 16.0mph /  25.7km/h 18.0mph /  29km/h 90% 0.00in /  0mm
16:34 47.3 °F /  8.5 °C 44.8 °F /  7.1 °C 30.06in /  1017.8hPa ESE 10.0mph /  16.1km/h 18.0mph /  29km/h 91% 0.00in /  0mm
16:37 47.2 °F /  8.4 °C 44.7 °F /  7.1 °C 30.06in /  1017.8hPa ESE 15.0mph /  24.1km/h 15.0mph /  24.1km/h 91% 0.00in /  0mm
16:39 47.2 °F /  8.4 °C 44.7 °F /  7.1 °C 30.06in /  1017.8hPa ESE 10.0mph /  16.1km/h 16.0mph /  25.7km/h 91% 0.00in /  0mm
16:40 47.2 °F /  8.4 °C 44.7 °F /  7.1 °C 30.06in /  1017.8hPa ESE 13.0mph /  20.9km/h 17.0mph /  27.4km/h 91% 0.00in /  0mm
16:42 47.2 °F /  8.4 °C 44.7 °F /  7.1 °C 30.06in /  1017.8hPa ESE 14.0mph /  22.5km/h 17.0mph /  27.4km/h 91% 0.00in /  0mm
16:44 47.2 °F /  8.4 °C 44.7 °F /  7.1 °C 30.06in /  1017.8hPa SE 13.0mph /  20.9km/h 14.0mph /  22.5km/h 91% 0.00in /  0mm
16:49 47.1 °F /  8.4 °C 44.6 °F /  7 °C 30.06in /  1017.8hPa ESE 10.0mph /  16.1km/h 14.0mph /  22.5km/h 91% 0.00in /  0mm
16:52 47.1 °F /  8.4 °C 44.6 °F /  7 °C 30.06in /  1017.8hPa SE 8.0mph /  12.9km/h 14.0mph /  22.5km/h 91% 0.00in /  0mm
16:55 47.1 °F /  8.4 °C 44.6 °F /  7 °C 30.06in /  1017.8hPa SE 11.0mph /  17.7km/h 15.0mph /  24.1km/h 91% 0.00in /  0mm
16:57 47.0 °F /  8.3 °C 44.2 °F /  6.8 °C 30.06in /  1017.8hPa ESE 14.0mph /  22.5km/h 15.0mph /  24.1km/h 90% 0.00in /  0mm
16:58 47.1 °F /  8.4 °C 44.3 °F /  6.8 °C 30.06in /  1017.8hPa ESE 11.0mph /  17.7km/h 15.0mph /  24.1km/h 90% 0.00in /  0mm
17:02 47.0 °F /  8.3 °C 44.2 °F /  6.8 °C 30.06in /  1017.8hPa ESE 13.0mph /  20.9km/h 17.0mph /  27.4km/h 90% 0.00in /  0mm
17:03 47.0 °F /  8.3 °C 44.2 °F /  6.8 °C 30.06in /  1017.8hPa ESE 13.0mph /  20.9km/h 17.0mph /  27.4km/h 90% 0.00in /  0mm
17:04 46.9 °F /  8.3 °C 44.1 °F /  6.7 °C 30.06in /  1017.8hPa SE 10.0mph /  16.1km/h 16.0mph /  25.7km/h 90% 0.00in /  0mm
17:08 46.9 °F /  8.3 °C 44.1 °F /  6.7 °C 30.06in /  1017.8hPa ESE 8.0mph /  12.9km/h 12.0mph /  19.3km/h 90% 0.00in /  0mm
17:10 46.9 °F /  8.3 °C 44.1 °F /  6.7 °C 30.07in /  1018.2hPa SE 10.0mph /  16.1km/h 14.0mph /  22.5km/h 90% 0.00in /  0mm
17:13 46.8 °F /  8.2 °C 44.0 °F /  6.7 °C 30.07in /  1018.2hPa SE 10.0mph /  16.1km/h 14.0mph /  22.5km/h 90% 0.00in /  0mm
17:18 46.8 °F /  8.2 °C 44.0 °F /  6.7 °C 30.06in /  1017.8hPa ESE 13.0mph /  20.9km/h 14.0mph /  22.5km/h 90% 0.00in /  0mm
17:19 46.8 °F /  8.2 °C 44.0 °F /  6.7 °C 30.07in /  1018.2hPa ESE 12.0mph /  19.3km/h 14.0mph /  22.5km/h 90% 0.00in /  0mm
17:20 46.8 °F /  8.2 °C 44.0 °F /  6.7 °C 30.07in /  1018.2hPa SE 8.0mph /  12.9km/h 14.0mph /  22.5km/h 90% 0.00in /  0mm
17:23 46.7 °F /  8.2 °C 43.9 °F /  6.6 °C 30.08in /  1018.5hPa SE 11.0mph /  17.7km/h 13.0mph /  20.9km/h 90% 0.19in /  4.83mm
17:26 46.7 °F /  8.2 °C 43.9 °F /  6.6 °C 30.08in /  1018.5hPa SE 5.0mph /  8km/h 13.0mph /  20.9km/h 90% 0.15in /  3.81mm
17:29 46.6 °F /  8.1 °C 43.8 °F /  6.6 °C 30.08in /  1018.5hPa ESE 7.0mph /  11.3km/h 12.0mph /  19.3km/h 90% 0.08in /  2.03mm
17:32 46.5 °F /  8.1 °C 43.7 °F /  6.5 °C 30.07in /  1018.2hPa SE 7.0mph /  11.3km/h 13.0mph /  20.9km/h 90% 0.07in /  1.78mm
17:34 46.5 °F /  8.1 °C 44.0 °F /  6.7 °C 30.07in /  1018.2hPa ESE 11.0mph /  17.7km/h 12.0mph /  19.3km/h 91% 0.07in /  1.78mm
17:35 46.5 °F /  8.1 °C 44.0 °F /  6.7 °C 30.07in /  1018.2hPa SE 6.0mph /  9.7km/h 11.0mph /  17.7km/h 91% 0.07in /  1.78mm
17:40 46.4 °F /  8 °C 43.9 °F /  6.6 °C 30.07in /  1018.2hPa ESE 13.0mph /  20.9km/h 13.0mph /  20.9km/h 91% 0.07in /  1.78mm
17:41 46.4 °F /  8 °C 43.9 °F /  6.6 °C 30.07in /  1018.2hPa SE 9.0mph /  14.5km/h 14.0mph /  22.5km/h 91% 0.06in /  1.52mm
17:45 46.4 °F /  8 °C 43.9 °F /  6.6 °C 30.07in /  1018.2hPa ESE 7.0mph /  11.3km/h 11.0mph /  17.7km/h 91% 0.04in /  1.02mm
17:46 46.4 °F /  8 °C 43.9 °F /  6.6 °C 30.07in /  1018.2hPa ESE 9.0mph /  14.5km/h 11.0mph /  17.7km/h 91% 0.04in /  1.02mm
17:47 46.4 °F /  8 °C 43.9 °F /  6.6 °C 30.07in /  1018.2hPa SE 6.0mph /  9.7km/h 11.0mph /  17.7km/h 91% 0.04in /  1.02mm
17:52 46.4 °F /  8 °C 43.9 °F /  6.6 °C 30.06in /  1017.8hPa ESE 10.0mph /  16.1km/h 16.0mph /  25.7km/h 91% 0.24in /  6.1mm
17:53 46.3 °F /  7.9 °C 43.8 °F /  6.6 °C 30.06in /  1017.8hPa ESE 10.0mph /  16.1km/h 14.0mph /  22.5km/h 91% 0.24in /  6.1mm
17:54 46.3 °F /  7.9 °C 43.8 °F /  6.6 °C 30.06in /  1017.8hPa SE 12.0mph /  19.3km/h 14.0mph /  22.5km/h 91% 0.17in /  4.32mm
17:57 46.2 °F /  7.9 °C 43.7 °F /  6.5 °C 30.07in /  1018.2hPa ESE 8.0mph /  12.9km/h 12.0mph /  19.3km/h 91% 0.08in /  2.03mm
17:58 46.2 °F /  7.9 °C 44.0 °F /  6.7 °C 30.07in /  1018.2hPa SE 7.0mph /  11.3km/h 11.0mph /  17.7km/h 92% 0.08in /  2.03mm
17:59 46.2 °F /  7.9 °C 44.0 °F /  6.7 °C 30.06in /  1017.8hPa ESE 11.0mph /  17.7km/h 14.0mph /  22.5km/h 92% 0.07in /  1.78mm
18:03 46.3 °F /  7.9 °C 43.8 °F /  6.6 °C 30.06in /  1017.8hPa ESE 11.0mph /  17.7km/h 17.0mph /  27.4km/h 91% 0.06in /  1.52mm
18:04 46.2 °F /  7.9 °C 43.7 °F /  6.5 °C 30.06in /  1017.8hPa ESE 14.0mph /  22.5km/h 16.0mph /  25.7km/h 91% 0.06in /  1.52mm
18:09 46.2 °F /  7.9 °C 43.7 °F /  6.5 °C 30.05in /  1017.5hPa ESE 15.0mph /  24.1km/h 18.0mph /  29km/h 91% 0.08in /  2.03mm
18:10 46.2 °F /  7.9 °C 43.7 °F /  6.5 °C 30.05in /  1017.5hPa ESE 15.0mph /  24.1km/h 17.0mph /  27.4km/h 91% 0.08in /  2.03mm
18:14 46.2 °F /  7.9 °C 43.7 °F /  6.5 °C 30.05in /  1017.5hPa ESE 13.0mph /  20.9km/h 19.0mph /  30.6km/h 91% 0.08in /  2.03mm
18:15 46.2 °F /  7.9 °C 43.7 °F /  6.5 °C 30.05in /  1017.5hPa ESE 15.0mph /  24.1km/h 19.0mph /  30.6km/h 91% 0.08in /  2.03mm
18:19 46.2 °F /  7.9 °C 43.7 °F /  6.5 °C 30.04in /  1017.2hPa ESE 16.0mph /  25.7km/h 22.0mph /  35.4km/h 91% 0.05in /  1.27mm
18:20 46.3 °F /  7.9 °C 43.5 °F /  6.4 °C 30.05in /  1017.5hPa SE 13.0mph /  20.9km/h 22.0mph /  35.4km/h 90% 0.04in /  1.02mm
18:24 46.2 °F /  7.9 °C 43.7 °F /  6.5 °C 30.05in /  1017.5hPa ESE 12.0mph /  19.3km/h 16.0mph /  25.7km/h 91% 0.04in /  1.02mm
18:26 46.2 °F /  7.9 °C 43.7 °F /  6.5 °C 30.06in /  1017.8hPa SE 13.0mph /  20.9km/h 15.0mph /  24.1km/h 91% 0.04in /  1.02mm
18:27 46.2 °F /  7.9 °C 43.7 °F /  6.5 °C 30.07in /  1018.2hPa SSE 11.0mph /  17.7km/h 16.0mph /  25.7km/h 91% 0.04in /  1.02mm
18:30 46.3 °F /  7.9 °C 43.8 °F /  6.6 °C 30.06in /  1017.8hPa ESE 10.0mph /  16.1km/h 20.0mph /  32.2km/h 91% 0.04in /  1.02mm
18:31 46.3 °F /  7.9 °C 43.8 °F /  6.6 °C 30.06in /  1017.8hPa ESE 15.0mph /  24.1km/h 20.0mph /  32.2km/h 91% 0.04in /  1.02mm
18:33 46.2 °F /  7.9 °C 43.7 °F /  6.5 °C 30.05in /  1017.5hPa ESE 15.0mph /  24.1km/h 17.0mph /  27.4km/h 91% 0.04in /  1.02mm
18:34 46.1 °F /  7.8 °C 43.9 °F /  6.6 °C 30.04in /  1017.2hPa ESE 14.0mph /  22.5km/h 17.0mph /  27.4km/h 92% 0.04in /  1.02mm
18:36 46.1 °F /  7.8 °C 43.9 °F /  6.6 °C 30.04in /  1017.2hPa SE 22.0mph /  35.4km/h 22.0mph /  35.4km/h 92% 0.04in /  1.02mm
18:37 46.2 °F /  7.9 °C 43.7 °F /  6.5 °C 30.04in /  1017.2hPa ESE 17.0mph /  27.4km/h 22.0mph /  35.4km/h 91% 0.04in /  1.02mm
18:38 46.2 °F /  7.9 °C 43.7 °F /  6.5 °C 30.04in /  1017.2hPa SE 15.0mph /  24.1km/h 26.0mph /  41.8km/h 91% 0.04in /  1.02mm
18:42 46.2 °F /  7.9 °C 44.0 °F /  6.7 °C 30.04in /  1017.2hPa SE 15.0mph /  24.1km/h 20.0mph /  32.2km/h 92% 0.04in /  1.02mm
18:47 46.1 °F /  7.8 °C 43.9 °F /  6.6 °C 30.03in /  1016.8hPa SE 16.0mph /  25.7km/h 21.0mph /  33.8km/h 92% 0.14in /  3.56mm
18:52 46.1 °F /  7.8 °C 44.2 °F /  6.8 °C 30.03in /  1016.8hPa SE 20.0mph /  32.2km/h 35.0mph /  56.3km/h 93% 0.11in /  2.79mm
18:53 46.1 °F /  7.8 °C 44.2 °F /  6.8 °C 30.03in /  1016.8hPa SE 15.0mph /  24.1km/h 35.0mph /  56.3km/h 93% 0.11in /  2.79mm
18:57 46.0 °F /  7.8 °C 44.1 °F /  6.7 °C 30.05in /  1017.5hPa SE 23.0mph /  37km/h 24.0mph /  38.6km/h 93% 0.06in /  1.52mm
18:58 46.0 °F /  7.8 °C 44.1 °F /  6.7 °C 30.05in /  1017.5hPa SE 20.0mph /  32.2km/h 24.0mph /  38.6km/h 93% 0.06in /  1.52mm
18:59 46.0 °F /  7.8 °C 44.1 °F /  6.7 °C 30.04in /  1017.2hPa SE 18.0mph /  29km/h 24.0mph /  38.6km/h 93% 0.05in /  1.27mm
19:03 45.9 °F /  7.7 °C 44.3 °F /  6.8 °C 30.01in /  1016.1hPa SE 19.0mph /  30.6km/h 35.0mph /  56.3km/h 94% 0.05in /  1.27mm
19:04 45.8 °F /  7.7 °C 44.2 °F /  6.8 °C 29.99in /  1015.5hPa ESE 25.0mph /  40.2km/h 35.0mph /  56.3km/h 94% 0.05in /  1.27mm
19:08 45.9 °F /  7.7 °C 44.5 °F /  6.9 °C 29.98in /  1015.1hPa ESE 27.0mph /  43.5km/h 31.0mph /  49.9km/h 95% 0.05in /  1.27mm
19:09 46.0 °F /  7.8 °C 44.7 °F /  7.1 °C 29.99in /  1015.5hPa SE 23.0mph /  37km/h 33.0mph /  53.1km/h 95% 0.05in /  1.27mm
19:10 46.0 °F /  7.8 °C 44.7 °F /  7.1 °C 29.99in /  1015.5hPa SSE 31.0mph /  49.9km/h 33.0mph /  53.1km/h 95% 0.05in /  1.27mm
19:15 46.4 °F /  8 °C 45.0 °F /  7.2 °C 29.97in /  1014.8hPa SE 30.0mph /  48.3km/h 32.0mph /  51.5km/h 95% 0.04in /  1.02mm
19:16 46.4 °F /  8 °C 45.0 °F /  7.2 °C 29.95in /  1014.1hPa SE 22.0mph /  35.4km/h 34.0mph /  54.7km/h 95% 0.04in /  1.02mm
19:20 46.5 °F /  8.1 °C 45.2 °F /  7.3 °C 29.97in /  1014.8hPa SE 24.0mph /  38.6km/h 32.0mph /  51.5km/h 95% 0.00in /  0mm
19:21 46.6 °F /  8.1 °C 45.2 °F /  7.3 °C 29.97in /  1014.8hPa ESE 25.0mph /  40.2km/h 29.0mph /  46.7km/h 95% 0.00in /  0mm
19:22 46.6 °F /  8.1 °C 45.2 °F /  7.3 °C 29.97in /  1014.8hPa SE 17.0mph /  27.4km/h 29.0mph /  46.7km/h 95% 0.00in /  0mm
19:26 46.8 °F /  8.2 °C 45.2 °F /  7.3 °C 29.99in /  1015.5hPa ESE 18.0mph /  29km/h 34.0mph /  54.7km/h 94% 0.00in /  0mm
19:27 46.8 °F /  8.2 °C 45.2 °F /  7.3 °C 29.99in /  1015.5hPa SE 18.0mph /  29km/h 34.0mph /  54.7km/h 94% 0.00in /  0mm
19:28 46.9 °F /  8.3 °C 45.3 °F /  7.4 °C 29.99in /  1015.5hPa ESE 15.0mph /  24.1km/h 34.0mph /  54.7km/h 94% 0.00in /  0mm
19:32 47.1 °F /  8.4 °C 45.5 °F /  7.5 °C 29.99in /  1015.5hPa ESE 24.0mph /  38.6km/h 25.0mph /  40.2km/h 94% 0.00in /  0mm
19:33 47.1 °F /  8.4 °C 45.5 °F /  7.5 °C 29.98in /  1015.1hPa SE 18.0mph /  29km/h 25.0mph /  40.2km/h 94% 0.00in /  0mm
19:34 47.1 °F /  8.4 °C 45.5 °F /  7.5 °C 29.98in /  1015.1hPa SE 23.0mph /  37km/h 25.0mph /  40.2km/h 94% 0.00in /  0mm
19:35 47.2 °F /  8.4 °C 45.6 °F /  7.6 °C 29.98in /  1015.1hPa ESE 16.0mph /  25.7km/h 23.0mph /  37km/h 94% 0.00in /  0mm
19:37 47.4 °F /  8.6 °C 46.0 °F /  7.8 °C 29.99in /  1015.5hPa SE 16.0mph /  25.7km/h 24.0mph /  38.6km/h 95% 0.00in /  0mm
19:39 47.6 °F /  8.7 °C 46.2 °F /  7.9 °C 29.99in /  1015.5hPa SE 17.0mph /  27.4km/h 25.0mph /  40.2km/h 95% 0.00in /  0mm
19:43 48.6 °F /  9.2 °C 47.0 °F /  8.3 °C 29.98in /  1015.1hPa SE 25.0mph /  40.2km/h 28.0mph /  45.1km/h 94% 0.00in /  0mm
19:44 48.9 °F /  9.4 °C 47.0 °F /  8.3 °C 29.99in /  1015.5hPa SE 21.0mph /  33.8km/h 28.0mph /  45.1km/h 93% 0.00in /  0mm
19:48 48.9 °F /  9.4 °C 47.0 °F /  8.3 °C 29.99in /  1015.5hPa SE 14.0mph /  22.5km/h 26.0mph /  41.8km/h 93% 0.00in /  0mm
19:53 49.1 °F /  9.5 °C 47.5 °F /  8.6 °C 29.99in /  1015.5hPa SE 17.0mph /  27.4km/h 25.0mph /  40.2km/h 94% 1.11in /  28.19mm
19:54 49.1 °F /  9.5 °C 47.5 °F /  8.6 °C 29.99in /  1015.5hPa ESE 20.0mph /  32.2km/h 25.0mph /  40.2km/h 94% 0.39in /  9.91mm
19:56 49.2 °F /  9.6 °C 47.3 °F /  8.5 °C 29.99in /  1015.5hPa SE 19.0mph /  30.6km/h 24.0mph /  38.6km/h 93% 0.17in /  4.32mm
19:58 49.3 °F /  9.6 °C 47.4 °F /  8.6 °C 29.99in /  1015.5hPa SE 25.0mph /  40.2km/h 26.0mph /  41.8km/h 93% 0.09in /  2.29mm
19:59 49.4 °F /  9.7 °C 47.5 °F /  8.6 °C 29.99in /  1015.5hPa SE 28.0mph /  45.1km/h 33.0mph /  53.1km/h 93% 0.08in /  2.03mm
20:01 49.5 °F /  9.7 °C 47.6 °F /  8.7 °C 29.99in /  1015.5hPa SE 22.0mph /  35.4km/h 33.0mph /  53.1km/h 93% 0.07in /  1.78mm
20:06 49.8 °F /  9.9 °C 47.6 °F /  8.7 °C 29.99in /  1015.5hPa ESE 18.0mph /  29km/h 24.0mph /  38.6km/h 92% 0.04in /  1.02mm
20:07 49.8 °F /  9.9 °C 47.6 °F /  8.7 °C 29.99in /  1015.5hPa ESE 21.0mph /  33.8km/h 24.0mph /  38.6km/h 92% 0.04in /  1.02mm
20:11 50.2 °F /  10.1 °C 47.7 °F /  8.7 °C 30.00in /  1015.8hPa SE 20.0mph /  32.2km/h 27.0mph /  43.5km/h 91% 0.00in /  0mm
20:12 50.2 °F /  10.1 °C 47.7 °F /  8.7 °C 30.00in /  1015.8hPa SE 31.0mph /  49.9km/h 31.0mph /  49.9km/h 91% 0.00in /  0mm
20:17 50.6 °F /  10.3 °C 48.1 °F /  8.9 °C 30.00in /  1015.8hPa ESE 16.0mph /  25.7km/h 27.0mph /  43.5km/h 91% 0.00in /  0mm
20:22 50.8 °F /  10.4 °C 48.0 °F /  8.9 °C 30.00in /  1015.8hPa SE 19.0mph /  30.6km/h 29.0mph /  46.7km/h 90% 0.00in /  0mm
20:27 50.7 °F /  10.4 °C 48.2 °F /  9 °C 30.00in /  1015.8hPa SE 28.0mph /  45.1km/h 35.0mph /  56.3km/h 91% 0.15in /  3.81mm
20:28 50.7 °F /  10.4 °C 48.2 °F /  9 °C 30.00in /  1015.8hPa SE 18.0mph /  29km/h 35.0mph /  56.3km/h 91% 0.15in /  3.81mm
20:32 50.8 °F /  10.4 °C 48.0 °F /  8.9 °C 29.99in /  1015.5hPa ESE 23.0mph /  37km/h 25.0mph /  40.2km/h 90% 0.08in /  2.03mm
20:33 50.8 °F /  10.4 °C 48.0 °F /  8.9 °C 29.99in /  1015.5hPa SE 21.0mph /  33.8km/h 25.0mph /  40.2km/h 90% 0.07in /  1.78mm
20:34 50.8 °F /  10.4 °C 48.0 °F /  8.9 °C 29.99in /  1015.5hPa ESE 20.0mph /  32.2km/h 25.0mph /  40.2km/h 90% 0.06in /  1.52mm
20:38 50.7 °F /  10.4 °C 47.9 °F /  8.8 °C 30.00in /  1015.8hPa SE 15.0mph /  24.1km/h 26.0mph /  41.8km/h 90% 0.04in /  1.02mm
20:43 50.6 °F /  10.3 °C 47.8 °F /  8.8 °C 30.01in /  1016.1hPa ESE 16.0mph /  25.7km/h 26.0mph /  41.8km/h 90% 0.00in /  0mm
20:48 50.4 °F /  10.2 °C 47.9 °F /  8.8 °C 29.99in /  1015.5hPa ESE 22.0mph /  35.4km/h 24.0mph /  38.6km/h 91% 0.00in /  0mm
20:49 50.3 °F /  10.2 °C 47.8 °F /  8.8 °C 29.99in /  1015.5hPa SE 10.0mph /  16.1km/h 24.0mph /  38.6km/h 91% 0.00in /  0mm
20:54 50.3 °F /  10.2 °C 47.8 °F /  8.8 °C 29.99in /  1015.5hPa ESE 25.0mph /  40.2km/h 31.0mph /  49.9km/h 91% 0.00in /  0mm
20:55 50.3 °F /  10.2 °C 47.8 °F /  8.8 °C 29.99in /  1015.5hPa ESE 21.0mph /  33.8km/h 31.0mph /  49.9km/h 91% 0.00in /  0mm
20:58 50.3 °F /  10.2 °C 47.5 °F /  8.6 °C 29.98in /  1015.1hPa ESE 23.0mph /  37km/h 29.0mph /  46.7km/h 90% 0.00in /  0mm
20:59 50.3 °F /  10.2 °C 47.8 °F /  8.8 °C 29.98in /  1015.1hPa ESE 14.0mph /  22.5km/h 29.0mph /  46.7km/h 91% 0.00in /  0mm
21:00 50.2 °F /  10.1 °C 47.7 °F /  8.7 °C 29.98in /  1015.1hPa ESE 26.0mph /  41.8km/h 28.0mph /  45.1km/h 91% 0.00in /  0mm
21:03 50.2 °F /  10.1 °C 47.7 °F /  8.7 °C 29.98in /  1015.1hPa East 23.0mph /  37km/h 30.0mph /  48.3km/h 91% 0.00in /  0mm
21:08 50.1 °F /  10.1 °C 47.6 °F /  8.7 °C 29.98in /  1015.1hPa ESE 18.0mph /  29km/h 28.0mph /  45.1km/h 91% 0.00in /  0mm
21:10 50.1 °F /  10.1 °C 47.3 °F /  8.5 °C 29.99in /  1015.5hPa ESE 17.0mph /  27.4km/h 28.0mph /  45.1km/h 90% 0.00in /  0mm
21:14 50.0 °F /  10 °C 47.5 °F /  8.6 °C 29.99in /  1015.5hPa East 17.0mph /  27.4km/h 27.0mph /  43.5km/h 91% 0.00in /  0mm
21:15 50.0 °F /  10 °C 47.5 °F /  8.6 °C 29.99in /  1015.5hPa ESE 18.0mph /  29km/h 27.0mph /  43.5km/h 91% 0.00in /  0mm
21:16 50.0 °F /  10 °C 47.5 °F /  8.6 °C 29.99in /  1015.5hPa ESE 14.0mph /  22.5km/h 22.0mph /  35.4km/h 91% 0.00in /  0mm
21:20 49.9 °F /  9.9 °C 47.1 °F /  8.4 °C 29.99in /  1015.5hPa SE 25.0mph /  40.2km/h 29.0mph /  46.7km/h 90% 0.00in /  0mm
21:21 49.8 °F /  9.9 °C 47.0 °F /  8.3 °C 29.99in /  1015.5hPa SE 20.0mph /  32.2km/h 29.0mph /  46.7km/h 90% 0.00in /  0mm
21:26 49.8 °F /  9.9 °C 47.0 °F /  8.3 °C 29.98in /  1015.1hPa ESE 16.0mph /  25.7km/h 23.0mph /  37km/h 90% 0.00in /  0mm
21:29 49.7 °F /  9.8 °C 46.9 °F /  8.3 °C 29.98in /  1015.1hPa SE 15.0mph /  24.1km/h 26.0mph /  41.8km/h 90% 0.00in /  0mm
21:31 49.7 °F /  9.8 °C 46.9 °F /  8.3 °C 29.98in /  1015.1hPa ESE 20.0mph /  32.2km/h 21.0mph /  33.8km/h 90% 0.00in /  0mm
21:32 49.7 °F /  9.8 °C 46.9 °F /  8.3 °C 29.99in /  1015.5hPa ESE 22.0mph /  35.4km/h 26.0mph /  41.8km/h 90% 0.00in /  0mm
21:36 49.7 °F /  9.8 °C 47.2 °F /  8.4 °C 29.98in /  1015.1hPa ESE 13.0mph /  20.9km/h 21.0mph /  33.8km/h 91% 0.00in /  0mm
21:37 49.7 °F /  9.8 °C 47.2 °F /  8.4 °C 29.98in /  1015.1hPa ESE 16.0mph /  25.7km/h 21.0mph /  33.8km/h 91% 0.00in /  0mm
21:38 49.6 °F /  9.8 °C 47.1 °F /  8.4 °C 29.98in /  1015.1hPa ESE 22.0mph /  35.4km/h 22.0mph /  35.4km/h 91% 0.00in /  0mm
21:42 49.5 °F /  9.7 °C 47.0 °F /  8.3 °C 29.97in /  1014.8hPa ESE 12.0mph /  19.3km/h 21.0mph /  33.8km/h 91% 0.00in /  0mm
21:47 49.5 °F /  9.7 °C 47.0 °F /  8.3 °C 29.98in /  1015.1hPa East 13.0mph /  20.9km/h 23.0mph /  37km/h 91% 0.11in /  2.79mm
21:48 49.5 °F /  9.7 °C 47.3 °F /  8.5 °C 29.98in /  1015.1hPa ESE 12.0mph /  19.3km/h 23.0mph /  37km/h 92% 0.11in /  2.79mm
21:52 49.5 °F /  9.7 °C 47.0 °F /  8.3 °C 29.99in /  1015.5hPa SE 16.0mph /  25.7km/h 24.0mph /  38.6km/h 91% 0.07in /  1.78mm
21:53 49.5 °F /  9.7 °C 47.0 °F /  8.3 °C 29.99in /  1015.5hPa ESE 17.0mph /  27.4km/h 24.0mph /  38.6km/h 91% 0.06in /  1.52mm
21:57 49.5 °F /  9.7 °C 47.3 °F /  8.5 °C 30.00in /  1015.8hPa SE 16.0mph /  25.7km/h 21.0mph /  33.8km/h 92% 0.04in /  1.02mm
21:58 49.5 °F /  9.7 °C 47.3 °F /  8.5 °C 30.00in /  1015.8hPa SE 18.0mph /  29km/h 21.0mph /  33.8km/h 92% 0.04in /  1.02mm
21:59 49.5 °F /  9.7 °C 47.0 °F /  8.3 °C 30.00in /  1015.8hPa East 16.0mph /  25.7km/h 22.0mph /  35.4km/h 91% 0.04in /  1.02mm
22:00 49.5 °F /  9.7 °C 47.0 °F /  8.3 °C 30.00in /  1015.8hPa ESE 15.0mph /  24.1km/h 22.0mph /  35.4km/h 91% 0.00in /  0mm
22:02 49.5 °F /  9.7 °C 47.0 °F /  8.3 °C 30.00in /  1015.8hPa SE 9.0mph /  14.5km/h 23.0mph /  37km/h 91% 0.00in /  0mm
22:07 49.5 °F /  9.7 °C 47.3 °F /  8.5 °C 30.00in /  1015.8hPa ESE 16.0mph /  25.7km/h 20.0mph /  32.2km/h 92% 0.92in /  23.37mm
22:08 49.5 °F /  9.7 °C 47.3 °F /  8.5 °C 30.00in /  1015.8hPa SE 16.0mph /  25.7km/h 18.0mph /  29km/h 92% 0.92in /  23.37mm
22:13 49.5 °F /  9.7 °C 47.3 °F /  8.5 °C 30.00in /  1015.8hPa SE 19.0mph /  30.6km/h 19.0mph /  30.6km/h 92% 0.13in /  3.3mm
22:18 49.6 °F /  9.8 °C 47.1 °F /  8.4 °C 30.00in /  1015.8hPa East 15.0mph /  24.1km/h 22.0mph /  35.4km/h 91% 0.06in /  1.52mm
22:19 49.6 °F /  9.8 °C 47.4 °F /  8.6 °C 30.01in /  1016.1hPa ESE 8.0mph /  12.9km/h 19.0mph /  30.6km/h 92% 0.06in /  1.52mm
22:23 49.6 °F /  9.8 °C 47.1 °F /  8.4 °C 30.00in /  1015.8hPa ESE 19.0mph /  30.6km/h 24.0mph /  38.6km/h 91% 0.04in /  1.02mm
22:24 49.6 °F /  9.8 °C 47.1 °F /  8.4 °C 30.00in /  1015.8hPa ESE 17.0mph /  27.4km/h 24.0mph /  38.6km/h 91% 0.04in /  1.02mm
22:29 49.6 °F /  9.8 °C 47.1 °F /  8.4 °C 30.00in /  1015.8hPa ESE 17.0mph /  27.4km/h 21.0mph /  33.8km/h 91% 0.00in /  0mm
22:30 49.7 °F /  9.8 °C 47.2 °F /  8.4 °C 30.00in /  1015.8hPa ESE 19.0mph /  30.6km/h 21.0mph /  33.8km/h 91% 0.00in /  0mm
22:34 49.6 °F /  9.8 °C 47.1 °F /  8.4 °C 29.99in /  1015.5hPa ESE 15.0mph /  24.1km/h 21.0mph /  33.8km/h 91% 0.00in /  0mm
22:35 49.6 °F /  9.8 °C 47.1 °F /  8.4 °C 29.99in /  1015.5hPa ESE 18.0mph /  29km/h 21.0mph /  33.8km/h 91% 0.00in /  0mm
22:36 49.6 °F /  9.8 °C 47.1 °F /  8.4 °C 29.99in /  1015.5hPa ESE 15.0mph /  24.1km/h 19.0mph /  30.6km/h 91% 0.00in /  0mm
22:37 49.5 °F /  9.7 °C 47.0 °F /  8.3 °C 29.99in /  1015.5hPa SE 17.0mph /  27.4km/h 18.0mph /  29km/h 91% 0.00in /  0mm
22:39 49.5 °F /  9.7 °C 47.3 °F /  8.5 °C 29.99in /  1015.5hPa ESE 17.0mph /  27.4km/h 24.0mph /  38.6km/h 92% 0.00in /  0mm
22:42 49.5 °F /  9.7 °C 47.3 °F /  8.5 °C 29.99in /  1015.5hPa ESE 13.0mph /  20.9km/h 24.0mph /  38.6km/h 92% 0.00in /  0mm
22:44 49.6 °F /  9.8 °C 47.1 °F /  8.4 °C 29.99in /  1015.5hPa ESE 18.0mph /  29km/h 20.0mph /  32.2km/h 91% 0.00in /  0mm
22:45 49.6 °F /  9.8 °C 47.1 °F /  8.4 °C 29.99in /  1015.5hPa ESE 19.0mph /  30.6km/h 20.0mph /  32.2km/h 91% 0.00in /  0mm
22:48 49.7 °F /  9.8 °C 47.2 °F /  8.4 °C 29.99in /  1015.5hPa SE 18.0mph /  29km/h 24.0mph /  38.6km/h 91% 0.00in /  0mm
22:50 49.9 °F /  9.9 °C 47.4 °F /  8.6 °C 29.99in /  1015.5hPa East 26.0mph /  41.8km/h 28.0mph /  45.1km/h 91% 0.00in /  0mm
22:53 49.9 °F /  9.9 °C 47.4 °F /  8.6 °C 29.99in /  1015.5hPa SE 10.0mph /  16.1km/h 26.0mph /  41.8km/h 91% 0.00in /  0mm
22:54 49.9 °F /  9.9 °C 47.4 °F /  8.6 °C 29.99in /  1015.5hPa ESE 18.0mph /  29km/h 23.0mph /  37km/h 91% 0.00in /  0mm
22:55 50.0 °F /  10 °C 47.5 °F /  8.6 °C 29.99in /  1015.5hPa ESE 17.0mph /  27.4km/h 23.0mph /  37km/h 91% 0.00in /  0mm
22:58 50.1 °F /  10.1 °C 47.6 °F /  8.7 °C 29.99in /  1015.5hPa SE 14.0mph /  22.5km/h 23.0mph /  37km/h 91% 0.00in /  0mm
22:59 50.0 °F /  10 °C 47.5 °F /  8.6 °C 29.99in /  1015.5hPa ESE 11.0mph /  17.7km/h 21.0mph /  33.8km/h 91% 0.00in /  0mm
23:00 50.0 °F /  10 °C 47.5 °F /  8.6 °C 29.98in /  1015.1hPa ESE 13.0mph /  20.9km/h 21.0mph /  33.8km/h 91% 0.00in /  0mm
23:04 50.1 °F /  10.1 °C 47.3 °F /  8.5 °C 29.98in /  1015.1hPa SSE 10.0mph /  16.1km/h 22.0mph /  35.4km/h 90% 0.00in /  0mm
23:05 50.2 °F /  10.1 °C 47.4 °F /  8.6 °C 29.98in /  1015.1hPa ESE 13.0mph /  20.9km/h 23.0mph /  37km/h 90% 0.00in /  0mm
23:10 50.3 °F /  10.2 °C 47.5 °F /  8.6 °C 29.98in /  1015.1hPa East 13.0mph /  20.9km/h 24.0mph /  38.6km/h 90% 0.00in /  0mm
23:11 50.3 °F /  10.2 °C 47.5 °F /  8.6 °C 29.99in /  1015.5hPa SE 15.0mph /  24.1km/h 24.0mph /  38.6km/h 90% 0.00in /  0mm
23:15 50.4 °F /  10.2 °C 47.6 °F /  8.7 °C 29.98in /  1015.1hPa SE 15.0mph /  24.1km/h 18.0mph /  29km/h 90% 0.00in /  0mm
23:16 50.3 °F /  10.2 °C 47.5 °F /  8.6 °C 29.98in /  1015.1hPa SE 14.0mph /  22.5km/h 18.0mph /  29km/h 90% 0.00in /  0mm
23:20 50.5 °F /  10.3 °C 47.4 °F /  8.6 °C 29.97in /  1014.8hPa ESE 18.0mph /  29km/h 19.0mph /  30.6km/h 89% 0.00in /  0mm
23:21 50.5 °F /  10.3 °C 47.7 °F /  8.7 °C 29.97in /  1014.8hPa SE 18.0mph /  29km/h 19.0mph /  30.6km/h 90% 0.00in /  0mm
23:26 50.5 °F /  10.3 °C 47.4 °F /  8.6 °C 29.97in /  1014.8hPa ESE 20.0mph /  32.2km/h 20.0mph /  32.2km/h 89% 0.00in /  0mm
23:27 50.6 °F /  10.3 °C 47.5 °F /  8.6 °C 29.97in /  1014.8hPa SE 13.0mph /  20.9km/h 20.0mph /  32.2km/h 89% 0.00in /  0mm
23:31 50.7 °F /  10.4 °C 47.3 °F /  8.5 °C 29.98in /  1015.1hPa SE 18.0mph /  29km/h 22.0mph /  35.4km/h 88% 0.00in /  0mm
23:32 50.8 °F /  10.4 °C 47.4 °F /  8.6 °C 29.98in /  1015.1hPa ESE 17.0mph /  27.4km/h 22.0mph /  35.4km/h 88% 0.00in /  0mm
23:35 50.8 °F /  10.4 °C 47.4 °F /  8.6 °C 29.97in /  1014.8hPa SE 12.0mph /  19.3km/h 21.0mph /  33.8km/h 88% 0.00in /  0mm
23:36 50.8 °F /  10.4 °C 47.4 °F /  8.6 °C 29.97in /  1014.8hPa ESE 14.0mph /  22.5km/h 22.0mph /  35.4km/h 88% 0.00in /  0mm
23:37 50.8 °F /  10.4 °C 47.4 °F /  8.6 °C 29.97in /  1014.8hPa ESE 20.0mph /  32.2km/h 22.0mph /  35.4km/h 88% 0.00in /  0mm
23:41 50.9 °F /  10.5 °C 47.5 °F /  8.6 °C 29.97in /  1014.8hPa SSE 22.0mph /  35.4km/h 31.0mph /  49.9km/h 88% 0.00in /  0mm
23:42 51.0 °F /  10.6 °C 47.6 °F /  8.7 °C 29.97in /  1014.8hPa SE 15.0mph /  24.1km/h 31.0mph /  49.9km/h 88% 0.00in /  0mm
23:47 50.9 °F /  10.5 °C 47.5 °F /  8.6 °C 29.97in /  1014.8hPa SE 14.0mph /  22.5km/h 20.0mph /  32.2km/h 88% 0.00in /  0mm
23:48 50.9 °F /  10.5 °C 47.5 °F /  8.6 °C 29.97in /  1014.8hPa SE 19.0mph /  30.6km/h 20.0mph /  32.2km/h 88% 0.00in /  0mm
23:52 51.0 °F /  10.6 °C 47.3 °F /  8.5 °C 29.96in /  1014.4hPa ESE 20.0mph /  32.2km/h 26.0mph /  41.8km/h 87% 0.00in /  0mm
23:53 51.1 °F /  10.6 °C 47.4 °F /  8.6 °C 29.96in /  1014.4hPa East 22.0mph /  35.4km/h 26.0mph /  41.8km/h 87% 0.00in /  0mm
23:58 51.1 °F /  10.6 °C 47.4 °F /  8.6 °C 29.95in /  1014.1hPa ESE 12.0mph /  19.3km/h 24.0mph /  38.6km/h 87% 0.00in /  0mm
Compliments of Weather Underground